<?xml version="1.0" encoding="UTF-8" standalone="no" ?>
<gpx xmlns="http://www.topografix.com/GPX/1/1" xmlns:xsi="http://www.w3.org/2001/XMLSchema-instance" xsi:schemaLocation="http://www.topografix.com/GPX/1/1 http://www.topografix.com/GPX/1/1/gpx.xsd" version="1.1" creator="VisuGPX - https://www.visugpx.com">
  <metadata>
    <name>Tunnel du Mortier, chemin des boeufs</name>
    <desc><![CDATA[Avec qq détours (il y a moyen de faire plus direct)]]></desc>
  </metadata>
  <trk>
    <name><![CDATA[Mortier - Thierry]]></name>
    <desc><![CDATA[]]></desc>
    <trkseg>
      <trkpt lat="45.23778" lon="5.58145">
        <ele>1416</ele>
        <time>2011-07-06T06:41:27Z</time>
      </trkpt>
      <trkpt lat="45.23773" lon="5.58146">
        <ele>1429</ele>
        <time>2011-07-06T06:41:34Z</time>
      </trkpt>
      <trkpt lat="45.23773" lon="5.58146">
        <ele>1429</ele>
        <time>2011-07-06T06:41:34Z</time>
      </trkpt>
      <trkpt lat="45.23773" lon="5.58146">
        <ele>1430</ele>
        <time>2011-07-06T06:42:31Z</time>
      </trkpt>
      <trkpt lat="45.23798" lon="5.5815">
        <ele>1504</ele>
        <time>2011-07-06T06:43:36Z</time>
      </trkpt>
      <trkpt lat="45.23786" lon="5.58116">
        <ele>1493</ele>
        <time>2011-07-06T06:43:48Z</time>
      </trkpt>
      <trkpt lat="45.23786" lon="5.58116">
        <ele>1493</ele>
        <time>2011-07-06T06:43:48Z</time>
      </trkpt>
      <trkpt lat="45.23786" lon="5.58116">
        <ele>1493</ele>
        <time>2011-07-06T06:44:09Z</time>
      </trkpt>
      <trkpt lat="45.2377" lon="5.58151">
        <ele>1443</ele>
        <time>2011-07-06T06:44:34Z</time>
      </trkpt>
      <trkpt lat="45.23776" lon="5.5816">
        <ele>1440</ele>
        <time>2011-07-06T06:44:40Z</time>
      </trkpt>
      <trkpt lat="45.23767" lon="5.58166">
        <ele>1439</ele>
        <time>2011-07-06T06:44:51Z</time>
      </trkpt>
      <trkpt lat="45.23772" lon="5.5816">
        <ele>1440</ele>
        <time>2011-07-06T06:44:54Z</time>
      </trkpt>
      <trkpt lat="45.23776" lon="5.58156">
        <ele>1440</ele>
        <time>2011-07-06T06:45:01Z</time>
      </trkpt>
      <trkpt lat="45.24082" lon="5.58861">
        <ele>1428</ele>
        <time>2011-07-06T06:47:54Z</time>
      </trkpt>
      <trkpt lat="45.24082" lon="5.58861">
        <ele>1428</ele>
        <time>2011-07-06T06:47:54Z</time>
      </trkpt>
      <trkpt lat="45.24082" lon="5.58861">
        <ele>1427</ele>
        <time>2011-07-06T06:48:11Z</time>
      </trkpt>
      <trkpt lat="45.24086" lon="5.58856">
        <ele>1429</ele>
        <time>2011-07-06T06:48:34Z</time>
      </trkpt>
      <trkpt lat="45.24089" lon="5.58864">
        <ele>1421</ele>
        <time>2011-07-06T06:48:37Z</time>
      </trkpt>
      <trkpt lat="45.24095" lon="5.58866">
        <ele>1417</ele>
        <time>2011-07-06T06:48:40Z</time>
      </trkpt>
      <trkpt lat="45.24104" lon="5.58862">
        <ele>1418</ele>
        <time>2011-07-06T06:48:43Z</time>
      </trkpt>
      <trkpt lat="45.24112" lon="5.58865">
        <ele>1418</ele>
        <time>2011-07-06T06:48:46Z</time>
      </trkpt>
      <trkpt lat="45.24122" lon="5.58867">
        <ele>1420</ele>
        <time>2011-07-06T06:48:49Z</time>
      </trkpt>
      <trkpt lat="45.24142" lon="5.58872">
        <ele>1420</ele>
        <time>2011-07-06T06:48:53Z</time>
      </trkpt>
      <trkpt lat="45.24163" lon="5.58869">
        <ele>1420</ele>
        <time>2011-07-06T06:48:56Z</time>
      </trkpt>
      <trkpt lat="45.24187" lon="5.58858">
        <ele>1418</ele>
        <time>2011-07-06T06:48:59Z</time>
      </trkpt>
      <trkpt lat="45.24208" lon="5.58847">
        <ele>1420</ele>
        <time>2011-07-06T06:49:02Z</time>
      </trkpt>
      <trkpt lat="45.24225" lon="5.58831">
        <ele>1418</ele>
        <time>2011-07-06T06:49:05Z</time>
      </trkpt>
      <trkpt lat="45.24245" lon="5.58821">
        <ele>1419</ele>
        <time>2011-07-06T06:49:08Z</time>
      </trkpt>
      <trkpt lat="45.24266" lon="5.58813">
        <ele>1417</ele>
        <time>2011-07-06T06:49:11Z</time>
      </trkpt>
      <trkpt lat="45.24277" lon="5.58808">
        <ele>1418</ele>
        <time>2011-07-06T06:49:14Z</time>
      </trkpt>
      <trkpt lat="45.24291" lon="5.58803">
        <ele>1414</ele>
        <time>2011-07-06T06:49:17Z</time>
      </trkpt>
      <trkpt lat="45.24302" lon="5.58792">
        <ele>1412</ele>
        <time>2011-07-06T06:49:20Z</time>
      </trkpt>
      <trkpt lat="45.24314" lon="5.58792">
        <ele>1412</ele>
        <time>2011-07-06T06:49:23Z</time>
      </trkpt>
      <trkpt lat="45.24329" lon="5.58778">
        <ele>1411</ele>
        <time>2011-07-06T06:49:26Z</time>
      </trkpt>
      <trkpt lat="45.24343" lon="5.58768">
        <ele>1412</ele>
        <time>2011-07-06T06:49:30Z</time>
      </trkpt>
      <trkpt lat="45.24347" lon="5.58764">
        <ele>1411</ele>
        <time>2011-07-06T06:49:32Z</time>
      </trkpt>
      <trkpt lat="45.24353" lon="5.58755">
        <ele>1410</ele>
        <time>2011-07-06T06:49:34Z</time>
      </trkpt>
      <trkpt lat="45.24358" lon="5.5875">
        <ele>1410</ele>
        <time>2011-07-06T06:49:36Z</time>
      </trkpt>
      <trkpt lat="45.24362" lon="5.58748">
        <ele>1409</ele>
        <time>2011-07-06T06:49:37Z</time>
      </trkpt>
      <trkpt lat="45.24369" lon="5.58744">
        <ele>1409</ele>
        <time>2011-07-06T06:49:39Z</time>
      </trkpt>
      <trkpt lat="45.24374" lon="5.58742">
        <ele>1409</ele>
        <time>2011-07-06T06:49:40Z</time>
      </trkpt>
      <trkpt lat="45.24378" lon="5.5874">
        <ele>1409</ele>
        <time>2011-07-06T06:49:41Z</time>
      </trkpt>
      <trkpt lat="45.24384" lon="5.58738">
        <ele>1409</ele>
        <time>2011-07-06T06:49:42Z</time>
      </trkpt>
      <trkpt lat="45.24389" lon="5.58735">
        <ele>1410</ele>
        <time>2011-07-06T06:49:43Z</time>
      </trkpt>
      <trkpt lat="45.24396" lon="5.58732">
        <ele>1410</ele>
        <time>2011-07-06T06:49:45Z</time>
      </trkpt>
      <trkpt lat="45.244" lon="5.5873">
        <ele>1409</ele>
        <time>2011-07-06T06:49:46Z</time>
      </trkpt>
      <trkpt lat="45.24406" lon="5.58726">
        <ele>1409</ele>
        <time>2011-07-06T06:49:47Z</time>
      </trkpt>
      <trkpt lat="45.24411" lon="5.58724">
        <ele>1409</ele>
        <time>2011-07-06T06:49:48Z</time>
      </trkpt>
      <trkpt lat="45.24418" lon="5.5872">
        <ele>1409</ele>
        <time>2011-07-06T06:49:50Z</time>
      </trkpt>
      <trkpt lat="45.24422" lon="5.58719">
        <ele>1407</ele>
        <time>2011-07-06T06:49:52Z</time>
      </trkpt>
      <trkpt lat="45.24428" lon="5.58721">
        <ele>1406</ele>
        <time>2011-07-06T06:49:55Z</time>
      </trkpt>
      <trkpt lat="45.24433" lon="5.58715">
        <ele>1402</ele>
        <time>2011-07-06T06:49:59Z</time>
      </trkpt>
      <trkpt lat="45.24438" lon="5.58712">
        <ele>1403</ele>
        <time>2011-07-06T06:50:01Z</time>
      </trkpt>
      <trkpt lat="45.24449" lon="5.58716">
        <ele>1406</ele>
        <time>2011-07-06T06:50:36Z</time>
      </trkpt>
      <trkpt lat="45.24484" lon="5.58752">
        <ele>1409</ele>
        <time>2011-07-06T06:50:40Z</time>
      </trkpt>
      <trkpt lat="45.24541" lon="5.58775">
        <ele>1409</ele>
        <time>2011-07-06T06:50:45Z</time>
      </trkpt>
      <trkpt lat="45.24598" lon="5.58786">
        <ele>1405</ele>
        <time>2011-07-06T06:50:50Z</time>
      </trkpt>
      <trkpt lat="45.24645" lon="5.58735">
        <ele>1393</ele>
        <time>2011-07-06T06:50:54Z</time>
      </trkpt>
      <trkpt lat="45.24654" lon="5.58715">
        <ele>1387</ele>
        <time>2011-07-06T06:50:58Z</time>
      </trkpt>
      <trkpt lat="45.24664" lon="5.58701">
        <ele>1387</ele>
        <time>2011-07-06T06:51:02Z</time>
      </trkpt>
      <trkpt lat="45.24668" lon="5.5869">
        <ele>1386</ele>
        <time>2011-07-06T06:51:05Z</time>
      </trkpt>
      <trkpt lat="45.24675" lon="5.58685">
        <ele>1386</ele>
        <time>2011-07-06T06:51:08Z</time>
      </trkpt>
      <trkpt lat="45.24681" lon="5.58683">
        <ele>1386</ele>
        <time>2011-07-06T06:51:11Z</time>
      </trkpt>
      <trkpt lat="45.24686" lon="5.58684">
        <ele>1385</ele>
        <time>2011-07-06T06:51:14Z</time>
      </trkpt>
      <trkpt lat="45.24703" lon="5.58678">
        <ele>1385</ele>
        <time>2011-07-06T06:51:17Z</time>
      </trkpt>
      <trkpt lat="45.24719" lon="5.5868">
        <ele>1383</ele>
        <time>2011-07-06T06:51:20Z</time>
      </trkpt>
      <trkpt lat="45.24727" lon="5.5868">
        <ele>1383</ele>
        <time>2011-07-06T06:51:23Z</time>
      </trkpt>
      <trkpt lat="45.24735" lon="5.58686">
        <ele>1382</ele>
        <time>2011-07-06T06:51:30Z</time>
      </trkpt>
      <trkpt lat="45.2474" lon="5.58696">
        <ele>1379</ele>
        <time>2011-07-06T06:51:32Z</time>
      </trkpt>
      <trkpt lat="45.2474" lon="5.58702">
        <ele>1377</ele>
        <time>2011-07-06T06:51:34Z</time>
      </trkpt>
      <trkpt lat="45.24744" lon="5.58705">
        <ele>1377</ele>
        <time>2011-07-06T06:51:35Z</time>
      </trkpt>
      <trkpt lat="45.24747" lon="5.5871">
        <ele>1376</ele>
        <time>2011-07-06T06:51:38Z</time>
      </trkpt>
      <trkpt lat="45.24744" lon="5.58716">
        <ele>1377</ele>
        <time>2011-07-06T06:51:44Z</time>
      </trkpt>
      <trkpt lat="45.2474" lon="5.58718">
        <ele>1377</ele>
        <time>2011-07-06T06:51:54Z</time>
      </trkpt>
      <trkpt lat="45.2474" lon="5.58718">
        <ele>1377</ele>
        <time>2011-07-06T06:51:54Z</time>
      </trkpt>
      <trkpt lat="45.2474" lon="5.58718">
        <ele>1377</ele>
        <time>2011-07-06T06:52:00Z</time>
      </trkpt>
      <trkpt lat="45.24749" lon="5.58736">
        <ele>1378</ele>
        <time>2011-07-06T06:52:17Z</time>
      </trkpt>
      <trkpt lat="45.24739" lon="5.58775">
        <ele>1377</ele>
        <time>2011-07-06T06:52:21Z</time>
      </trkpt>
      <trkpt lat="45.24737" lon="5.58795">
        <ele>1377</ele>
        <time>2011-07-06T06:52:26Z</time>
      </trkpt>
      <trkpt lat="45.24743" lon="5.58856">
        <ele>1373</ele>
        <time>2011-07-06T06:52:33Z</time>
      </trkpt>
      <trkpt lat="45.24744" lon="5.58865">
        <ele>1372</ele>
        <time>2011-07-06T06:52:34Z</time>
      </trkpt>
      <trkpt lat="45.24741" lon="5.5887">
        <ele>1372</ele>
        <time>2011-07-06T06:52:35Z</time>
      </trkpt>
      <trkpt lat="45.24735" lon="5.5888">
        <ele>1370</ele>
        <time>2011-07-06T06:52:36Z</time>
      </trkpt>
      <trkpt lat="45.24733" lon="5.58896">
        <ele>1372</ele>
        <time>2011-07-06T06:52:38Z</time>
      </trkpt>
      <trkpt lat="45.2473" lon="5.58905">
        <ele>1371</ele>
        <time>2011-07-06T06:52:39Z</time>
      </trkpt>
      <trkpt lat="45.24728" lon="5.58915">
        <ele>1369</ele>
        <time>2011-07-06T06:52:41Z</time>
      </trkpt>
      <trkpt lat="45.24734" lon="5.58922">
        <ele>1365</ele>
        <time>2011-07-06T06:52:44Z</time>
      </trkpt>
      <trkpt lat="45.24735" lon="5.58928">
        <ele>1362</ele>
        <time>2011-07-06T06:52:45Z</time>
      </trkpt>
      <trkpt lat="45.24735" lon="5.58938">
        <ele>1359</ele>
        <time>2011-07-06T06:52:48Z</time>
      </trkpt>
      <trkpt lat="45.24736" lon="5.58946">
        <ele>1357</ele>
        <time>2011-07-06T06:52:50Z</time>
      </trkpt>
      <trkpt lat="45.24724" lon="5.58957">
        <ele>1353</ele>
        <time>2011-07-06T06:52:59Z</time>
      </trkpt>
      <trkpt lat="45.24724" lon="5.58966">
        <ele>1351</ele>
        <time>2011-07-06T06:53:01Z</time>
      </trkpt>
      <trkpt lat="45.24716" lon="5.58979">
        <ele>1351</ele>
        <time>2011-07-06T06:53:08Z</time>
      </trkpt>
      <trkpt lat="45.24712" lon="5.58984">
        <ele>1350</ele>
        <time>2011-07-06T06:53:09Z</time>
      </trkpt>
      <trkpt lat="45.24682" lon="5.58986">
        <ele>1346</ele>
        <time>2011-07-06T06:53:17Z</time>
      </trkpt>
      <trkpt lat="45.24677" lon="5.58986">
        <ele>1345</ele>
        <time>2011-07-06T06:53:18Z</time>
      </trkpt>
      <trkpt lat="45.24672" lon="5.58985">
        <ele>1345</ele>
        <time>2011-07-06T06:53:19Z</time>
      </trkpt>
      <trkpt lat="45.24667" lon="5.58985">
        <ele>1345</ele>
        <time>2011-07-06T06:53:20Z</time>
      </trkpt>
      <trkpt lat="45.24662" lon="5.5899">
        <ele>1346</ele>
        <time>2011-07-06T06:53:21Z</time>
      </trkpt>
      <trkpt lat="45.24658" lon="5.5899">
        <ele>1346</ele>
        <time>2011-07-06T06:53:22Z</time>
      </trkpt>
      <trkpt lat="45.24652" lon="5.58986">
        <ele>1346</ele>
        <time>2011-07-06T06:53:24Z</time>
      </trkpt>
      <trkpt lat="45.24653" lon="5.58976">
        <ele>1344</ele>
        <time>2011-07-06T06:53:25Z</time>
      </trkpt>
      <trkpt lat="45.2464" lon="5.5897">
        <ele>1341</ele>
        <time>2011-07-06T06:53:28Z</time>
      </trkpt>
      <trkpt lat="45.2464" lon="5.58962">
        <ele>1342</ele>
        <time>2011-07-06T06:53:30Z</time>
      </trkpt>
      <trkpt lat="45.24645" lon="5.58951">
        <ele>1343</ele>
        <time>2011-07-06T06:53:31Z</time>
      </trkpt>
      <trkpt lat="45.24634" lon="5.58957">
        <ele>1342</ele>
        <time>2011-07-06T06:53:32Z</time>
      </trkpt>
      <trkpt lat="45.2463" lon="5.58953">
        <ele>1341</ele>
        <time>2011-07-06T06:53:34Z</time>
      </trkpt>
      <trkpt lat="45.24624" lon="5.58953">
        <ele>1341</ele>
        <time>2011-07-06T06:53:37Z</time>
      </trkpt>
      <trkpt lat="45.24619" lon="5.58946">
        <ele>1340</ele>
        <time>2011-07-06T06:53:40Z</time>
      </trkpt>
      <trkpt lat="45.24623" lon="5.58951">
        <ele>1340</ele>
        <time>2011-07-06T06:53:42Z</time>
      </trkpt>
      <trkpt lat="45.24618" lon="5.58951">
        <ele>1337</ele>
        <time>2011-07-06T06:53:45Z</time>
      </trkpt>
      <trkpt lat="45.24621" lon="5.58945">
        <ele>1337</ele>
        <time>2011-07-06T06:54:12Z</time>
      </trkpt>
      <trkpt lat="45.2462" lon="5.58951">
        <ele>1337</ele>
        <time>2011-07-06T06:54:16Z</time>
      </trkpt>
      <trkpt lat="45.24608" lon="5.58955">
        <ele>1335</ele>
        <time>2011-07-06T06:54:31Z</time>
      </trkpt>
      <trkpt lat="45.24599" lon="5.58952">
        <ele>1333</ele>
        <time>2011-07-06T06:54:34Z</time>
      </trkpt>
      <trkpt lat="45.24594" lon="5.58949">
        <ele>1333</ele>
        <time>2011-07-06T06:54:37Z</time>
      </trkpt>
      <trkpt lat="45.24531" lon="5.58979">
        <ele>1323</ele>
        <time>2011-07-06T06:54:53Z</time>
      </trkpt>
      <trkpt lat="45.24522" lon="5.58979">
        <ele>1323</ele>
        <time>2011-07-06T06:54:55Z</time>
      </trkpt>
      <trkpt lat="45.24516" lon="5.58979">
        <ele>1322</ele>
        <time>2011-07-06T06:54:57Z</time>
      </trkpt>
      <trkpt lat="45.24511" lon="5.58983">
        <ele>1321</ele>
        <time>2011-07-06T06:54:58Z</time>
      </trkpt>
      <trkpt lat="45.24506" lon="5.58968">
        <ele>1318</ele>
        <time>2011-07-06T06:55:07Z</time>
      </trkpt>
      <trkpt lat="45.24519" lon="5.58949">
        <ele>1315</ele>
        <time>2011-07-06T06:55:08Z</time>
      </trkpt>
      <trkpt lat="45.24511" lon="5.58959">
        <ele>1316</ele>
        <time>2011-07-06T06:55:10Z</time>
      </trkpt>
      <trkpt lat="45.24507" lon="5.58965">
        <ele>1313</ele>
        <time>2011-07-06T06:55:13Z</time>
      </trkpt>
      <trkpt lat="45.24501" lon="5.58965">
        <ele>1312</ele>
        <time>2011-07-06T06:55:16Z</time>
      </trkpt>
      <trkpt lat="45.24496" lon="5.58966">
        <ele>1312</ele>
        <time>2011-07-06T06:55:20Z</time>
      </trkpt>
      <trkpt lat="45.24434" lon="5.59068">
        <ele>1302</ele>
        <time>2011-07-06T06:57:12Z</time>
      </trkpt>
      <trkpt lat="45.24434" lon="5.59068">
        <ele>1302</ele>
        <time>2011-07-06T06:57:12Z</time>
      </trkpt>
      <trkpt lat="45.24434" lon="5.59068">
        <ele>1301</ele>
        <time>2011-07-06T06:57:22Z</time>
      </trkpt>
      <trkpt lat="45.24382" lon="5.59096">
        <ele>1273</ele>
        <time>2011-07-06T07:02:32Z</time>
      </trkpt>
      <trkpt lat="45.24082" lon="5.59323">
        <ele>1212</ele>
        <time>2011-07-06T07:10:38Z</time>
      </trkpt>
      <trkpt lat="45.2408" lon="5.5933">
        <ele>1226</ele>
        <time>2011-07-06T07:10:39Z</time>
      </trkpt>
      <trkpt lat="45.24074" lon="5.5933">
        <ele>1211</ele>
        <time>2011-07-06T07:10:43Z</time>
      </trkpt>
      <trkpt lat="45.24071" lon="5.59334">
        <ele>1216</ele>
        <time>2011-07-06T07:10:46Z</time>
      </trkpt>
      <trkpt lat="45.24064" lon="5.59334">
        <ele>1216</ele>
        <time>2011-07-06T07:10:47Z</time>
      </trkpt>
      <trkpt lat="45.24066" lon="5.59327">
        <ele>1211</ele>
        <time>2011-07-06T07:10:49Z</time>
      </trkpt>
      <trkpt lat="45.24058" lon="5.59333">
        <ele>1207</ele>
        <time>2011-07-06T07:10:51Z</time>
      </trkpt>
      <trkpt lat="45.24052" lon="5.59333">
        <ele>1213</ele>
        <time>2011-07-06T07:10:53Z</time>
      </trkpt>
      <trkpt lat="45.24048" lon="5.59331">
        <ele>1212</ele>
        <time>2011-07-06T07:10:54Z</time>
      </trkpt>
      <trkpt lat="45.24044" lon="5.59336">
        <ele>1211</ele>
        <time>2011-07-06T07:10:55Z</time>
      </trkpt>
      <trkpt lat="45.24037" lon="5.59339">
        <ele>1211</ele>
        <time>2011-07-06T07:10:57Z</time>
      </trkpt>
      <trkpt lat="45.24032" lon="5.59342">
        <ele>1212</ele>
        <time>2011-07-06T07:10:58Z</time>
      </trkpt>
      <trkpt lat="45.24026" lon="5.59348">
        <ele>1215</ele>
        <time>2011-07-06T07:11:00Z</time>
      </trkpt>
      <trkpt lat="45.2402" lon="5.59352">
        <ele>1212</ele>
        <time>2011-07-06T07:11:03Z</time>
      </trkpt>
      <trkpt lat="45.24015" lon="5.59354">
        <ele>1213</ele>
        <time>2011-07-06T07:11:05Z</time>
      </trkpt>
      <trkpt lat="45.24008" lon="5.59356">
        <ele>1213</ele>
        <time>2011-07-06T07:11:07Z</time>
      </trkpt>
      <trkpt lat="45.24005" lon="5.59361">
        <ele>1212</ele>
        <time>2011-07-06T07:11:08Z</time>
      </trkpt>
      <trkpt lat="45.24" lon="5.59363">
        <ele>1211</ele>
        <time>2011-07-06T07:11:09Z</time>
      </trkpt>
      <trkpt lat="45.23996" lon="5.5936">
        <ele>1213</ele>
        <time>2011-07-06T07:11:10Z</time>
      </trkpt>
      <trkpt lat="45.2399" lon="5.59361">
        <ele>1215</ele>
        <time>2011-07-06T07:11:13Z</time>
      </trkpt>
      <trkpt lat="45.23984" lon="5.59364">
        <ele>1214</ele>
        <time>2011-07-06T07:11:16Z</time>
      </trkpt>
      <trkpt lat="45.23988" lon="5.59369">
        <ele>1214</ele>
        <time>2011-07-06T07:11:23Z</time>
      </trkpt>
      <trkpt lat="45.23975" lon="5.59385">
        <ele>1213</ele>
        <time>2011-07-06T07:12:20Z</time>
      </trkpt>
      <trkpt lat="45.2395" lon="5.59433">
        <ele>1209</ele>
        <time>2011-07-06T07:12:25Z</time>
      </trkpt>
      <trkpt lat="45.23931" lon="5.59466">
        <ele>1212</ele>
        <time>2011-07-06T07:12:32Z</time>
      </trkpt>
      <trkpt lat="45.23924" lon="5.59467">
        <ele>1211</ele>
        <time>2011-07-06T07:12:33Z</time>
      </trkpt>
      <trkpt lat="45.23917" lon="5.59469">
        <ele>1210</ele>
        <time>2011-07-06T07:12:34Z</time>
      </trkpt>
      <trkpt lat="45.2391" lon="5.59473">
        <ele>1211</ele>
        <time>2011-07-06T07:12:36Z</time>
      </trkpt>
      <trkpt lat="45.23903" lon="5.59475">
        <ele>1210</ele>
        <time>2011-07-06T07:12:37Z</time>
      </trkpt>
      <trkpt lat="45.23898" lon="5.59477">
        <ele>1210</ele>
        <time>2011-07-06T07:12:38Z</time>
      </trkpt>
      <trkpt lat="45.23892" lon="5.59479">
        <ele>1210</ele>
        <time>2011-07-06T07:12:40Z</time>
      </trkpt>
      <trkpt lat="45.23885" lon="5.5949">
        <ele>1211</ele>
        <time>2011-07-06T07:12:43Z</time>
      </trkpt>
      <trkpt lat="45.23885" lon="5.59498">
        <ele>1211</ele>
        <time>2011-07-06T07:12:45Z</time>
      </trkpt>
      <trkpt lat="45.2389" lon="5.59507">
        <ele>1212</ele>
        <time>2011-07-06T07:12:46Z</time>
      </trkpt>
      <trkpt lat="45.23893" lon="5.59511">
        <ele>1212</ele>
        <time>2011-07-06T07:12:47Z</time>
      </trkpt>
      <trkpt lat="45.2389" lon="5.59518">
        <ele>1213</ele>
        <time>2011-07-06T07:12:50Z</time>
      </trkpt>
      <trkpt lat="45.23888" lon="5.59526">
        <ele>1213</ele>
        <time>2011-07-06T07:12:51Z</time>
      </trkpt>
      <trkpt lat="45.23892" lon="5.59533">
        <ele>1214</ele>
        <time>2011-07-06T07:12:53Z</time>
      </trkpt>
      <trkpt lat="45.23895" lon="5.59539">
        <ele>1215</ele>
        <time>2011-07-06T07:12:56Z</time>
      </trkpt>
      <trkpt lat="45.23895" lon="5.59548">
        <ele>1214</ele>
        <time>2011-07-06T07:12:57Z</time>
      </trkpt>
      <trkpt lat="45.23894" lon="5.59555">
        <ele>1214</ele>
        <time>2011-07-06T07:13:00Z</time>
      </trkpt>
      <trkpt lat="45.23898" lon="5.59563">
        <ele>1214</ele>
        <time>2011-07-06T07:13:02Z</time>
      </trkpt>
      <trkpt lat="45.23898" lon="5.59563">
        <ele>1214</ele>
        <time>2011-07-06T07:13:02Z</time>
      </trkpt>
      <trkpt lat="45.23898" lon="5.59563">
        <ele>1214</ele>
        <time>2011-07-06T07:13:05Z</time>
      </trkpt>
      <trkpt lat="45.23903" lon="5.59565">
        <ele>1214</ele>
        <time>2011-07-06T07:13:10Z</time>
      </trkpt>
      <trkpt lat="45.23906" lon="5.59561">
        <ele>1214</ele>
        <time>2011-07-06T07:13:15Z</time>
      </trkpt>
      <trkpt lat="45.23906" lon="5.59561">
        <ele>1214</ele>
        <time>2011-07-06T07:13:15Z</time>
      </trkpt>
      <trkpt lat="45.23906" lon="5.59561">
        <ele>1214</ele>
        <time>2011-07-06T07:13:19Z</time>
      </trkpt>
      <trkpt lat="45.23906" lon="5.59569">
        <ele>1213</ele>
        <time>2011-07-06T07:13:23Z</time>
      </trkpt>
      <trkpt lat="45.23901" lon="5.59572">
        <ele>1213</ele>
        <time>2011-07-06T07:13:30Z</time>
      </trkpt>
      <trkpt lat="45.23906" lon="5.59572">
        <ele>1213</ele>
        <time>2011-07-06T07:13:35Z</time>
      </trkpt>
      <trkpt lat="45.23899" lon="5.59576">
        <ele>1213</ele>
        <time>2011-07-06T07:13:38Z</time>
      </trkpt>
      <trkpt lat="45.23894" lon="5.5958">
        <ele>1213</ele>
        <time>2011-07-06T07:13:40Z</time>
      </trkpt>
      <trkpt lat="45.23887" lon="5.59582">
        <ele>1213</ele>
        <time>2011-07-06T07:13:41Z</time>
      </trkpt>
      <trkpt lat="45.23892" lon="5.59595">
        <ele>1212</ele>
        <time>2011-07-06T07:13:43Z</time>
      </trkpt>
      <trkpt lat="45.23892" lon="5.59605">
        <ele>1213</ele>
        <time>2011-07-06T07:13:46Z</time>
      </trkpt>
      <trkpt lat="45.23896" lon="5.59609">
        <ele>1212</ele>
        <time>2011-07-06T07:13:56Z</time>
      </trkpt>
      <trkpt lat="45.23896" lon="5.59609">
        <ele>1212</ele>
        <time>2011-07-06T07:13:56Z</time>
      </trkpt>
      <trkpt lat="45.23896" lon="5.59609">
        <ele>1212</ele>
        <time>2011-07-06T07:13:58Z</time>
      </trkpt>
      <trkpt lat="45.23942" lon="5.5973">
        <ele>1218</ele>
        <time>2011-07-06T07:15:33Z</time>
      </trkpt>
      <trkpt lat="45.2394" lon="5.59738">
        <ele>1219</ele>
        <time>2011-07-06T07:15:37Z</time>
      </trkpt>
      <trkpt lat="45.2394" lon="5.59738">
        <ele>1219</ele>
        <time>2011-07-06T07:15:37Z</time>
      </trkpt>
      <trkpt lat="45.2394" lon="5.59738">
        <ele>1219</ele>
        <time>2011-07-06T07:15:46Z</time>
      </trkpt>
      <trkpt lat="45.23944" lon="5.59744">
        <ele>1215</ele>
        <time>2011-07-06T07:18:33Z</time>
      </trkpt>
      <trkpt lat="45.23887" lon="5.59838">
        <ele>1205</ele>
        <time>2011-07-06T07:20:32Z</time>
      </trkpt>
      <trkpt lat="45.23881" lon="5.59848">
        <ele>1206</ele>
        <time>2011-07-06T07:20:37Z</time>
      </trkpt>
      <trkpt lat="45.23886" lon="5.59862">
        <ele>1202</ele>
        <time>2011-07-06T07:20:43Z</time>
      </trkpt>
      <trkpt lat="45.23879" lon="5.5988">
        <ele>1203</ele>
        <time>2011-07-06T07:20:47Z</time>
      </trkpt>
      <trkpt lat="45.23882" lon="5.59893">
        <ele>1203</ele>
        <time>2011-07-06T07:20:51Z</time>
      </trkpt>
      <trkpt lat="45.23898" lon="5.59917">
        <ele>1201</ele>
        <time>2011-07-06T07:20:56Z</time>
      </trkpt>
      <trkpt lat="45.23902" lon="5.59932">
        <ele>1202</ele>
        <time>2011-07-06T07:21:01Z</time>
      </trkpt>
      <trkpt lat="45.23908" lon="5.59946">
        <ele>1202</ele>
        <time>2011-07-06T07:21:06Z</time>
      </trkpt>
      <trkpt lat="45.23919" lon="5.59961">
        <ele>1200</ele>
        <time>2011-07-06T07:21:10Z</time>
      </trkpt>
      <trkpt lat="45.23925" lon="5.5997">
        <ele>1200</ele>
        <time>2011-07-06T07:21:14Z</time>
      </trkpt>
      <trkpt lat="45.23928" lon="5.59977">
        <ele>1201</ele>
        <time>2011-07-06T07:21:18Z</time>
      </trkpt>
      <trkpt lat="45.23926" lon="5.59989">
        <ele>1201</ele>
        <time>2011-07-06T07:21:22Z</time>
      </trkpt>
      <trkpt lat="45.23928" lon="5.60012">
        <ele>1205</ele>
        <time>2011-07-06T07:21:31Z</time>
      </trkpt>
      <trkpt lat="45.23925" lon="5.60006">
        <ele>1205</ele>
        <time>2011-07-06T07:21:33Z</time>
      </trkpt>
      <trkpt lat="45.23919" lon="5.60007">
        <ele>1203</ele>
        <time>2011-07-06T07:21:37Z</time>
      </trkpt>
      <trkpt lat="45.23919" lon="5.60063">
        <ele>1202</ele>
        <time>2011-07-06T07:22:40Z</time>
      </trkpt>
      <trkpt lat="45.23908" lon="5.60076">
        <ele>1201</ele>
        <time>2011-07-06T07:22:55Z</time>
      </trkpt>
      <trkpt lat="45.2389" lon="5.60115">
        <ele>1201</ele>
        <time>2011-07-06T07:23:00Z</time>
      </trkpt>
      <trkpt lat="45.23874" lon="5.60151">
        <ele>1201</ele>
        <time>2011-07-06T07:23:05Z</time>
      </trkpt>
      <trkpt lat="45.23865" lon="5.60172">
        <ele>1202</ele>
        <time>2011-07-06T07:23:09Z</time>
      </trkpt>
      <trkpt lat="45.23861" lon="5.60203">
        <ele>1202</ele>
        <time>2011-07-06T07:23:16Z</time>
      </trkpt>
      <trkpt lat="45.23852" lon="5.60221">
        <ele>1203</ele>
        <time>2011-07-06T07:23:20Z</time>
      </trkpt>
      <trkpt lat="45.23832" lon="5.60236">
        <ele>1203</ele>
        <time>2011-07-06T07:23:25Z</time>
      </trkpt>
      <trkpt lat="45.23827" lon="5.60247">
        <ele>1203</ele>
        <time>2011-07-06T07:23:30Z</time>
      </trkpt>
      <trkpt lat="45.23815" lon="5.60277">
        <ele>1204</ele>
        <time>2011-07-06T07:24:39Z</time>
      </trkpt>
      <trkpt lat="45.2382" lon="5.60274">
        <ele>1204</ele>
        <time>2011-07-06T07:24:42Z</time>
      </trkpt>
      <trkpt lat="45.23818" lon="5.60281">
        <ele>1204</ele>
        <time>2011-07-06T07:24:47Z</time>
      </trkpt>
      <trkpt lat="45.23818" lon="5.60288">
        <ele>1203</ele>
        <time>2011-07-06T07:24:48Z</time>
      </trkpt>
      <trkpt lat="45.23819" lon="5.60295">
        <ele>1202</ele>
        <time>2011-07-06T07:24:52Z</time>
      </trkpt>
      <trkpt lat="45.23819" lon="5.60295">
        <ele>1202</ele>
        <time>2011-07-06T07:24:52Z</time>
      </trkpt>
      <trkpt lat="45.23819" lon="5.60295">
        <ele>1202</ele>
        <time>2011-07-06T07:24:55Z</time>
      </trkpt>
      <trkpt lat="45.23762" lon="5.60369">
        <ele>1193</ele>
        <time>2011-07-06T07:25:38Z</time>
      </trkpt>
      <trkpt lat="45.23752" lon="5.60387">
        <ele>1193</ele>
        <time>2011-07-06T07:25:43Z</time>
      </trkpt>
      <trkpt lat="45.2375" lon="5.60406">
        <ele>1190</ele>
        <time>2011-07-06T07:25:48Z</time>
      </trkpt>
      <trkpt lat="45.23747" lon="5.60422">
        <ele>1188</ele>
        <time>2011-07-06T07:25:53Z</time>
      </trkpt>
      <trkpt lat="45.23754" lon="5.60443">
        <ele>1186</ele>
        <time>2011-07-06T07:25:58Z</time>
      </trkpt>
      <trkpt lat="45.23757" lon="5.60462">
        <ele>1185</ele>
        <time>2011-07-06T07:26:04Z</time>
      </trkpt>
      <trkpt lat="45.23762" lon="5.60475">
        <ele>1185</ele>
        <time>2011-07-06T07:26:09Z</time>
      </trkpt>
      <trkpt lat="45.23767" lon="5.60469">
        <ele>1182</ele>
        <time>2011-07-06T07:26:13Z</time>
      </trkpt>
      <trkpt lat="45.23756" lon="5.60487">
        <ele>1176</ele>
        <time>2011-07-06T07:26:19Z</time>
      </trkpt>
      <trkpt lat="45.23756" lon="5.60502">
        <ele>1176</ele>
        <time>2011-07-06T07:26:24Z</time>
      </trkpt>
      <trkpt lat="45.23744" lon="5.60528">
        <ele>1171</ele>
        <time>2011-07-06T07:26:35Z</time>
      </trkpt>
      <trkpt lat="45.2374" lon="5.60532">
        <ele>1171</ele>
        <time>2011-07-06T07:26:37Z</time>
      </trkpt>
      <trkpt lat="45.23735" lon="5.60538">
        <ele>1170</ele>
        <time>2011-07-06T07:26:39Z</time>
      </trkpt>
      <trkpt lat="45.23733" lon="5.60544">
        <ele>1169</ele>
        <time>2011-07-06T07:26:41Z</time>
      </trkpt>
      <trkpt lat="45.23728" lon="5.60548">
        <ele>1168</ele>
        <time>2011-07-06T07:26:43Z</time>
      </trkpt>
      <trkpt lat="45.2373" lon="5.6056">
        <ele>1163</ele>
        <time>2011-07-06T07:26:46Z</time>
      </trkpt>
      <trkpt lat="45.23726" lon="5.60567">
        <ele>1162</ele>
        <time>2011-07-06T07:26:48Z</time>
      </trkpt>
      <trkpt lat="45.23722" lon="5.60575">
        <ele>1160</ele>
        <time>2011-07-06T07:26:51Z</time>
      </trkpt>
      <trkpt lat="45.23718" lon="5.6058">
        <ele>1159</ele>
        <time>2011-07-06T07:26:52Z</time>
      </trkpt>
      <trkpt lat="45.23716" lon="5.60588">
        <ele>1159</ele>
        <time>2011-07-06T07:26:54Z</time>
      </trkpt>
      <trkpt lat="45.23713" lon="5.60594">
        <ele>1158</ele>
        <time>2011-07-06T07:26:55Z</time>
      </trkpt>
      <trkpt lat="45.23711" lon="5.60601">
        <ele>1157</ele>
        <time>2011-07-06T07:26:57Z</time>
      </trkpt>
      <trkpt lat="45.23707" lon="5.60607">
        <ele>1157</ele>
        <time>2011-07-06T07:26:59Z</time>
      </trkpt>
      <trkpt lat="45.23704" lon="5.60614">
        <ele>1157</ele>
        <time>2011-07-06T07:27:01Z</time>
      </trkpt>
      <trkpt lat="45.23701" lon="5.6062">
        <ele>1157</ele>
        <time>2011-07-06T07:27:03Z</time>
      </trkpt>
      <trkpt lat="45.23696" lon="5.60615">
        <ele>1158</ele>
        <time>2011-07-06T07:27:05Z</time>
      </trkpt>
      <trkpt lat="45.23683" lon="5.6062">
        <ele>1156</ele>
        <time>2011-07-06T07:27:06Z</time>
      </trkpt>
      <trkpt lat="45.23673" lon="5.60631">
        <ele>1154</ele>
        <time>2011-07-06T07:27:08Z</time>
      </trkpt>
      <trkpt lat="45.2367" lon="5.60637">
        <ele>1152</ele>
        <time>2011-07-06T07:27:10Z</time>
      </trkpt>
      <trkpt lat="45.23664" lon="5.60642">
        <ele>1152</ele>
        <time>2011-07-06T07:27:12Z</time>
      </trkpt>
      <trkpt lat="45.23658" lon="5.60649">
        <ele>1151</ele>
        <time>2011-07-06T07:27:14Z</time>
      </trkpt>
      <trkpt lat="45.23652" lon="5.6065">
        <ele>1149</ele>
        <time>2011-07-06T07:27:16Z</time>
      </trkpt>
      <trkpt lat="45.23651" lon="5.60658">
        <ele>1148</ele>
        <time>2011-07-06T07:27:17Z</time>
      </trkpt>
      <trkpt lat="45.2365" lon="5.6067">
        <ele>1147</ele>
        <time>2011-07-06T07:27:18Z</time>
      </trkpt>
      <trkpt lat="45.23654" lon="5.60696">
        <ele>1128</ele>
        <time>2011-07-06T07:27:20Z</time>
      </trkpt>
      <trkpt lat="45.23658" lon="5.60704">
        <ele>1122</ele>
        <time>2011-07-06T07:27:22Z</time>
      </trkpt>
      <trkpt lat="45.23657" lon="5.60712">
        <ele>1115</ele>
        <time>2011-07-06T07:27:25Z</time>
      </trkpt>
      <trkpt lat="45.23654" lon="5.60717">
        <ele>1113</ele>
        <time>2011-07-06T07:27:30Z</time>
      </trkpt>
      <trkpt lat="45.23654" lon="5.60725">
        <ele>1113</ele>
        <time>2011-07-06T07:27:38Z</time>
      </trkpt>
      <trkpt lat="45.23659" lon="5.6073">
        <ele>1112</ele>
        <time>2011-07-06T07:27:39Z</time>
      </trkpt>
      <trkpt lat="45.23662" lon="5.60733">
        <ele>1112</ele>
        <time>2011-07-06T07:27:40Z</time>
      </trkpt>
      <trkpt lat="45.23667" lon="5.60736">
        <ele>1112</ele>
        <time>2011-07-06T07:27:41Z</time>
      </trkpt>
      <trkpt lat="45.23671" lon="5.60742">
        <ele>1111</ele>
        <time>2011-07-06T07:27:44Z</time>
      </trkpt>
      <trkpt lat="45.23678" lon="5.60748">
        <ele>1110</ele>
        <time>2011-07-06T07:27:45Z</time>
      </trkpt>
      <trkpt lat="45.23683" lon="5.60755">
        <ele>1110</ele>
        <time>2011-07-06T07:27:46Z</time>
      </trkpt>
      <trkpt lat="45.23687" lon="5.60765">
        <ele>1110</ele>
        <time>2011-07-06T07:27:48Z</time>
      </trkpt>
      <trkpt lat="45.23693" lon="5.60766">
        <ele>1108</ele>
        <time>2011-07-06T07:27:50Z</time>
      </trkpt>
      <trkpt lat="45.237" lon="5.60772">
        <ele>1108</ele>
        <time>2011-07-06T07:27:52Z</time>
      </trkpt>
      <trkpt lat="45.23706" lon="5.6078">
        <ele>1106</ele>
        <time>2011-07-06T07:27:53Z</time>
      </trkpt>
      <trkpt lat="45.23709" lon="5.60785">
        <ele>1106</ele>
        <time>2011-07-06T07:27:54Z</time>
      </trkpt>
      <trkpt lat="45.23714" lon="5.60791">
        <ele>1106</ele>
        <time>2011-07-06T07:27:55Z</time>
      </trkpt>
      <trkpt lat="45.2372" lon="5.60791">
        <ele>1106</ele>
        <time>2011-07-06T07:27:56Z</time>
      </trkpt>
      <trkpt lat="45.23724" lon="5.60796">
        <ele>1106</ele>
        <time>2011-07-06T07:27:57Z</time>
      </trkpt>
      <trkpt lat="45.23731" lon="5.60795">
        <ele>1105</ele>
        <time>2011-07-06T07:27:58Z</time>
      </trkpt>
      <trkpt lat="45.23737" lon="5.60796">
        <ele>1104</ele>
        <time>2011-07-06T07:28:00Z</time>
      </trkpt>
      <trkpt lat="45.2374" lon="5.60802">
        <ele>1103</ele>
        <time>2011-07-06T07:28:01Z</time>
      </trkpt>
      <trkpt lat="45.23744" lon="5.60806">
        <ele>1103</ele>
        <time>2011-07-06T07:28:02Z</time>
      </trkpt>
      <trkpt lat="45.23748" lon="5.6081">
        <ele>1103</ele>
        <time>2011-07-06T07:28:03Z</time>
      </trkpt>
      <trkpt lat="45.23751" lon="5.60816">
        <ele>1103</ele>
        <time>2011-07-06T07:28:04Z</time>
      </trkpt>
      <trkpt lat="45.23755" lon="5.60821">
        <ele>1103</ele>
        <time>2011-07-06T07:28:05Z</time>
      </trkpt>
      <trkpt lat="45.23761" lon="5.60825">
        <ele>1103</ele>
        <time>2011-07-06T07:28:07Z</time>
      </trkpt>
      <trkpt lat="45.23766" lon="5.60831">
        <ele>1102</ele>
        <time>2011-07-06T07:28:08Z</time>
      </trkpt>
      <trkpt lat="45.23773" lon="5.60834">
        <ele>1102</ele>
        <time>2011-07-06T07:28:09Z</time>
      </trkpt>
      <trkpt lat="45.23779" lon="5.60836">
        <ele>1102</ele>
        <time>2011-07-06T07:28:10Z</time>
      </trkpt>
      <trkpt lat="45.23783" lon="5.6084">
        <ele>1102</ele>
        <time>2011-07-06T07:28:11Z</time>
      </trkpt>
      <trkpt lat="45.23789" lon="5.60847">
        <ele>1102</ele>
        <time>2011-07-06T07:28:12Z</time>
      </trkpt>
      <trkpt lat="45.23795" lon="5.60857">
        <ele>1101</ele>
        <time>2011-07-06T07:28:14Z</time>
      </trkpt>
      <trkpt lat="45.23801" lon="5.60861">
        <ele>1100</ele>
        <time>2011-07-06T07:28:15Z</time>
      </trkpt>
      <trkpt lat="45.23808" lon="5.60869">
        <ele>1098</ele>
        <time>2011-07-06T07:28:16Z</time>
      </trkpt>
      <trkpt lat="45.23808" lon="5.60877">
        <ele>1097</ele>
        <time>2011-07-06T07:28:17Z</time>
      </trkpt>
      <trkpt lat="45.23815" lon="5.60879">
        <ele>1097</ele>
        <time>2011-07-06T07:28:18Z</time>
      </trkpt>
      <trkpt lat="45.23819" lon="5.60885">
        <ele>1097</ele>
        <time>2011-07-06T07:28:19Z</time>
      </trkpt>
      <trkpt lat="45.23823" lon="5.60894">
        <ele>1097</ele>
        <time>2011-07-06T07:28:21Z</time>
      </trkpt>
      <trkpt lat="45.23829" lon="5.609">
        <ele>1097</ele>
        <time>2011-07-06T07:28:22Z</time>
      </trkpt>
      <trkpt lat="45.23836" lon="5.60905">
        <ele>1096</ele>
        <time>2011-07-06T07:28:23Z</time>
      </trkpt>
      <trkpt lat="45.23844" lon="5.60906">
        <ele>1094</ele>
        <time>2011-07-06T07:28:27Z</time>
      </trkpt>
      <trkpt lat="45.23848" lon="5.6091">
        <ele>1094</ele>
        <time>2011-07-06T07:28:28Z</time>
      </trkpt>
      <trkpt lat="45.23851" lon="5.609">
        <ele>1092</ele>
        <time>2011-07-06T07:28:30Z</time>
      </trkpt>
      <trkpt lat="45.23856" lon="5.60902">
        <ele>1092</ele>
        <time>2011-07-06T07:28:31Z</time>
      </trkpt>
      <trkpt lat="45.23858" lon="5.60907">
        <ele>1091</ele>
        <time>2011-07-06T07:28:32Z</time>
      </trkpt>
      <trkpt lat="45.23861" lon="5.60913">
        <ele>1090</ele>
        <time>2011-07-06T07:28:34Z</time>
      </trkpt>
      <trkpt lat="45.23864" lon="5.60921">
        <ele>1090</ele>
        <time>2011-07-06T07:28:36Z</time>
      </trkpt>
      <trkpt lat="45.23859" lon="5.60932">
        <ele>1088</ele>
        <time>2011-07-06T07:28:38Z</time>
      </trkpt>
      <trkpt lat="45.23861" lon="5.60938">
        <ele>1088</ele>
        <time>2011-07-06T07:28:39Z</time>
      </trkpt>
      <trkpt lat="45.23861" lon="5.60951">
        <ele>1088</ele>
        <time>2011-07-06T07:28:40Z</time>
      </trkpt>
      <trkpt lat="45.23872" lon="5.60936">
        <ele>1086</ele>
        <time>2011-07-06T07:28:41Z</time>
      </trkpt>
      <trkpt lat="45.23878" lon="5.60934">
        <ele>1084</ele>
        <time>2011-07-06T07:28:42Z</time>
      </trkpt>
      <trkpt lat="45.23883" lon="5.60944">
        <ele>1079</ele>
        <time>2011-07-06T07:28:44Z</time>
      </trkpt>
      <trkpt lat="45.23884" lon="5.60952">
        <ele>1069</ele>
        <time>2011-07-06T07:28:46Z</time>
      </trkpt>
      <trkpt lat="45.23888" lon="5.60959">
        <ele>1068</ele>
        <time>2011-07-06T07:28:48Z</time>
      </trkpt>
      <trkpt lat="45.23892" lon="5.60966">
        <ele>1066</ele>
        <time>2011-07-06T07:28:51Z</time>
      </trkpt>
      <trkpt lat="45.23892" lon="5.60973">
        <ele>1064</ele>
        <time>2011-07-06T07:28:52Z</time>
      </trkpt>
      <trkpt lat="45.23895" lon="5.60978">
        <ele>1064</ele>
        <time>2011-07-06T07:28:54Z</time>
      </trkpt>
      <trkpt lat="45.23898" lon="5.60984">
        <ele>1063</ele>
        <time>2011-07-06T07:28:55Z</time>
      </trkpt>
      <trkpt lat="45.23904" lon="5.60988">
        <ele>1060</ele>
        <time>2011-07-06T07:28:57Z</time>
      </trkpt>
      <trkpt lat="45.23907" lon="5.60994">
        <ele>1060</ele>
        <time>2011-07-06T07:28:58Z</time>
      </trkpt>
      <trkpt lat="45.23914" lon="5.60992">
        <ele>1054</ele>
        <time>2011-07-06T07:29:00Z</time>
      </trkpt>
      <trkpt lat="45.23918" lon="5.60997">
        <ele>1050</ele>
        <time>2011-07-06T07:29:01Z</time>
      </trkpt>
      <trkpt lat="45.23923" lon="5.61003">
        <ele>1045</ele>
        <time>2011-07-06T07:29:03Z</time>
      </trkpt>
      <trkpt lat="45.23928" lon="5.61009">
        <ele>1040</ele>
        <time>2011-07-06T07:29:04Z</time>
      </trkpt>
      <trkpt lat="45.23932" lon="5.61016">
        <ele>1037</ele>
        <time>2011-07-06T07:29:05Z</time>
      </trkpt>
      <trkpt lat="45.23935" lon="5.61025">
        <ele>1032</ele>
        <time>2011-07-06T07:29:06Z</time>
      </trkpt>
      <trkpt lat="45.23941" lon="5.61029">
        <ele>1027</ele>
        <time>2011-07-06T07:29:08Z</time>
      </trkpt>
      <trkpt lat="45.23946" lon="5.61031">
        <ele>1014</ele>
        <time>2011-07-06T07:29:12Z</time>
      </trkpt>
      <trkpt lat="45.23947" lon="5.61024">
        <ele>1006</ele>
        <time>2011-07-06T07:29:13Z</time>
      </trkpt>
      <trkpt lat="45.23948" lon="5.61017">
        <ele>995</ele>
        <time>2011-07-06T07:29:15Z</time>
      </trkpt>
      <trkpt lat="45.23946" lon="5.61023">
        <ele>985</ele>
        <time>2011-07-06T07:29:19Z</time>
      </trkpt>
      <trkpt lat="45.23944" lon="5.6103">
        <ele>983</ele>
        <time>2011-07-06T07:29:21Z</time>
      </trkpt>
      <trkpt lat="45.23943" lon="5.61038">
        <ele>981</ele>
        <time>2011-07-06T07:29:23Z</time>
      </trkpt>
      <trkpt lat="45.23941" lon="5.61046">
        <ele>979</ele>
        <time>2011-07-06T07:29:25Z</time>
      </trkpt>
      <trkpt lat="45.23934" lon="5.61054">
        <ele>979</ele>
        <time>2011-07-06T07:29:27Z</time>
      </trkpt>
      <trkpt lat="45.2393" lon="5.61058">
        <ele>979</ele>
        <time>2011-07-06T07:29:30Z</time>
      </trkpt>
      <trkpt lat="45.23931" lon="5.61065">
        <ele>978</ele>
        <time>2011-07-06T07:29:35Z</time>
      </trkpt>
      <trkpt lat="45.23887" lon="5.6107">
        <ele>974</ele>
        <time>2011-07-06T07:30:12Z</time>
      </trkpt>
      <trkpt lat="45.23888" lon="5.61078">
        <ele>974</ele>
        <time>2011-07-06T07:30:15Z</time>
      </trkpt>
      <trkpt lat="45.23884" lon="5.61089">
        <ele>974</ele>
        <time>2011-07-06T07:30:21Z</time>
      </trkpt>
      <trkpt lat="45.2388" lon="5.61093">
        <ele>974</ele>
        <time>2011-07-06T07:30:24Z</time>
      </trkpt>
      <trkpt lat="45.23867" lon="5.61104">
        <ele>974</ele>
        <time>2011-07-06T07:30:31Z</time>
      </trkpt>
      <trkpt lat="45.23858" lon="5.61105">
        <ele>974</ele>
        <time>2011-07-06T07:30:32Z</time>
      </trkpt>
      <trkpt lat="45.23851" lon="5.6111">
        <ele>973</ele>
        <time>2011-07-06T07:30:35Z</time>
      </trkpt>
      <trkpt lat="45.23845" lon="5.61119">
        <ele>973</ele>
        <time>2011-07-06T07:30:36Z</time>
      </trkpt>
      <trkpt lat="45.23839" lon="5.61121">
        <ele>973</ele>
        <time>2011-07-06T07:30:37Z</time>
      </trkpt>
      <trkpt lat="45.23834" lon="5.61123">
        <ele>973</ele>
        <time>2011-07-06T07:30:38Z</time>
      </trkpt>
      <trkpt lat="45.23824" lon="5.61115">
        <ele>974</ele>
        <time>2011-07-06T07:30:39Z</time>
      </trkpt>
      <trkpt lat="45.23823" lon="5.61123">
        <ele>973</ele>
        <time>2011-07-06T07:30:40Z</time>
      </trkpt>
      <trkpt lat="45.2382" lon="5.61129">
        <ele>972</ele>
        <time>2011-07-06T07:30:41Z</time>
      </trkpt>
      <trkpt lat="45.23814" lon="5.61127">
        <ele>972</ele>
        <time>2011-07-06T07:30:42Z</time>
      </trkpt>
      <trkpt lat="45.23809" lon="5.61126">
        <ele>972</ele>
        <time>2011-07-06T07:30:43Z</time>
      </trkpt>
      <trkpt lat="45.23802" lon="5.6113">
        <ele>971</ele>
        <time>2011-07-06T07:30:45Z</time>
      </trkpt>
      <trkpt lat="45.23795" lon="5.61129">
        <ele>972</ele>
        <time>2011-07-06T07:30:47Z</time>
      </trkpt>
      <trkpt lat="45.23788" lon="5.61134">
        <ele>971</ele>
        <time>2011-07-06T07:30:49Z</time>
      </trkpt>
      <trkpt lat="45.2378" lon="5.61138">
        <ele>970</ele>
        <time>2011-07-06T07:30:51Z</time>
      </trkpt>
      <trkpt lat="45.23775" lon="5.61138">
        <ele>970</ele>
        <time>2011-07-06T07:30:52Z</time>
      </trkpt>
      <trkpt lat="45.23766" lon="5.61141">
        <ele>969</ele>
        <time>2011-07-06T07:30:54Z</time>
      </trkpt>
      <trkpt lat="45.23757" lon="5.61144">
        <ele>970</ele>
        <time>2011-07-06T07:30:56Z</time>
      </trkpt>
      <trkpt lat="45.23751" lon="5.6115">
        <ele>969</ele>
        <time>2011-07-06T07:30:58Z</time>
      </trkpt>
      <trkpt lat="45.23749" lon="5.61159">
        <ele>968</ele>
        <time>2011-07-06T07:31:00Z</time>
      </trkpt>
      <trkpt lat="45.23746" lon="5.61165">
        <ele>968</ele>
        <time>2011-07-06T07:31:01Z</time>
      </trkpt>
      <trkpt lat="45.2374" lon="5.61172">
        <ele>968</ele>
        <time>2011-07-06T07:31:03Z</time>
      </trkpt>
      <trkpt lat="45.23739" lon="5.61178">
        <ele>968</ele>
        <time>2011-07-06T07:31:04Z</time>
      </trkpt>
      <trkpt lat="45.23735" lon="5.61181">
        <ele>968</ele>
        <time>2011-07-06T07:31:05Z</time>
      </trkpt>
      <trkpt lat="45.2373" lon="5.61185">
        <ele>967</ele>
        <time>2011-07-06T07:31:06Z</time>
      </trkpt>
      <trkpt lat="45.23723" lon="5.61194">
        <ele>967</ele>
        <time>2011-07-06T07:31:08Z</time>
      </trkpt>
      <trkpt lat="45.23722" lon="5.61203">
        <ele>968</ele>
        <time>2011-07-06T07:31:09Z</time>
      </trkpt>
      <trkpt lat="45.23722" lon="5.61211">
        <ele>968</ele>
        <time>2011-07-06T07:31:10Z</time>
      </trkpt>
      <trkpt lat="45.23719" lon="5.61221">
        <ele>967</ele>
        <time>2011-07-06T07:31:11Z</time>
      </trkpt>
      <trkpt lat="45.23717" lon="5.61229">
        <ele>967</ele>
        <time>2011-07-06T07:31:12Z</time>
      </trkpt>
      <trkpt lat="45.23714" lon="5.61237">
        <ele>966</ele>
        <time>2011-07-06T07:31:13Z</time>
      </trkpt>
      <trkpt lat="45.2371" lon="5.61242">
        <ele>966</ele>
        <time>2011-07-06T07:31:15Z</time>
      </trkpt>
      <trkpt lat="45.2371" lon="5.61248">
        <ele>966</ele>
        <time>2011-07-06T07:31:19Z</time>
      </trkpt>
      <trkpt lat="45.23705" lon="5.61248">
        <ele>964</ele>
        <time>2011-07-06T07:31:24Z</time>
      </trkpt>
      <trkpt lat="45.23704" lon="5.61242">
        <ele>959</ele>
        <time>2011-07-06T07:31:36Z</time>
      </trkpt>
      <trkpt lat="45.23704" lon="5.61242">
        <ele>959</ele>
        <time>2011-07-06T07:31:36Z</time>
      </trkpt>
      <trkpt lat="45.23704" lon="5.61242">
        <ele>959</ele>
        <time>2011-07-06T07:31:37Z</time>
      </trkpt>
      <trkpt lat="45.23706" lon="5.61248">
        <ele>958</ele>
        <time>2011-07-06T07:31:40Z</time>
      </trkpt>
      <trkpt lat="45.23706" lon="5.61248">
        <ele>958</ele>
        <time>2011-07-06T07:31:40Z</time>
      </trkpt>
      <trkpt lat="45.23706" lon="5.61248">
        <ele>958</ele>
        <time>2011-07-06T07:31:41Z</time>
      </trkpt>
      <trkpt lat="45.23696" lon="5.61237">
        <ele>959</ele>
        <time>2011-07-06T07:31:49Z</time>
      </trkpt>
      <trkpt lat="45.23697" lon="5.61244">
        <ele>958</ele>
        <time>2011-07-06T07:31:53Z</time>
      </trkpt>
      <trkpt lat="45.23698" lon="5.61258">
        <ele>955</ele>
        <time>2011-07-06T07:31:55Z</time>
      </trkpt>
      <trkpt lat="45.23692" lon="5.61264">
        <ele>955</ele>
        <time>2011-07-06T07:31:57Z</time>
      </trkpt>
      <trkpt lat="45.23685" lon="5.61272">
        <ele>955</ele>
        <time>2011-07-06T07:31:59Z</time>
      </trkpt>
      <trkpt lat="45.23682" lon="5.61281">
        <ele>954</ele>
        <time>2011-07-06T07:32:00Z</time>
      </trkpt>
      <trkpt lat="45.2367" lon="5.61291">
        <ele>949</ele>
        <time>2011-07-06T07:32:01Z</time>
      </trkpt>
      <trkpt lat="45.23655" lon="5.61299">
        <ele>939</ele>
        <time>2011-07-06T07:32:02Z</time>
      </trkpt>
      <trkpt lat="45.2365" lon="5.61305">
        <ele>939</ele>
        <time>2011-07-06T07:32:03Z</time>
      </trkpt>
      <trkpt lat="45.23645" lon="5.61312">
        <ele>938</ele>
        <time>2011-07-06T07:32:04Z</time>
      </trkpt>
      <trkpt lat="45.23639" lon="5.61319">
        <ele>938</ele>
        <time>2011-07-06T07:32:05Z</time>
      </trkpt>
      <trkpt lat="45.23631" lon="5.61324">
        <ele>938</ele>
        <time>2011-07-06T07:32:06Z</time>
      </trkpt>
      <trkpt lat="45.23624" lon="5.61329">
        <ele>938</ele>
        <time>2011-07-06T07:32:07Z</time>
      </trkpt>
      <trkpt lat="45.23617" lon="5.61335">
        <ele>937</ele>
        <time>2011-07-06T07:32:08Z</time>
      </trkpt>
      <trkpt lat="45.23609" lon="5.6134">
        <ele>936</ele>
        <time>2011-07-06T07:32:09Z</time>
      </trkpt>
      <trkpt lat="45.23601" lon="5.61344">
        <ele>936</ele>
        <time>2011-07-06T07:32:10Z</time>
      </trkpt>
      <trkpt lat="45.23593" lon="5.61348">
        <ele>936</ele>
        <time>2011-07-06T07:32:11Z</time>
      </trkpt>
      <trkpt lat="45.23587" lon="5.61351">
        <ele>936</ele>
        <time>2011-07-06T07:32:12Z</time>
      </trkpt>
      <trkpt lat="45.23582" lon="5.61353">
        <ele>936</ele>
        <time>2011-07-06T07:32:13Z</time>
      </trkpt>
      <trkpt lat="45.23577" lon="5.6135">
        <ele>936</ele>
        <time>2011-07-06T07:32:14Z</time>
      </trkpt>
      <trkpt lat="45.23573" lon="5.61355">
        <ele>935</ele>
        <time>2011-07-06T07:32:20Z</time>
      </trkpt>
      <trkpt lat="45.23566" lon="5.61356">
        <ele>935</ele>
        <time>2011-07-06T07:32:24Z</time>
      </trkpt>
      <trkpt lat="45.23562" lon="5.61353">
        <ele>934</ele>
        <time>2011-07-06T07:32:26Z</time>
      </trkpt>
      <trkpt lat="45.23557" lon="5.61349">
        <ele>934</ele>
        <time>2011-07-06T07:32:28Z</time>
      </trkpt>
      <trkpt lat="45.23552" lon="5.61346">
        <ele>934</ele>
        <time>2011-07-06T07:32:29Z</time>
      </trkpt>
      <trkpt lat="45.23546" lon="5.6134">
        <ele>934</ele>
        <time>2011-07-06T07:32:31Z</time>
      </trkpt>
      <trkpt lat="45.23538" lon="5.61335">
        <ele>933</ele>
        <time>2011-07-06T07:32:32Z</time>
      </trkpt>
      <trkpt lat="45.2353" lon="5.61335">
        <ele>933</ele>
        <time>2011-07-06T07:32:33Z</time>
      </trkpt>
      <trkpt lat="45.23521" lon="5.61334">
        <ele>933</ele>
        <time>2011-07-06T07:32:34Z</time>
      </trkpt>
      <trkpt lat="45.23513" lon="5.61333">
        <ele>933</ele>
        <time>2011-07-06T07:32:35Z</time>
      </trkpt>
      <trkpt lat="45.23502" lon="5.61326">
        <ele>933</ele>
        <time>2011-07-06T07:32:36Z</time>
      </trkpt>
      <trkpt lat="45.23496" lon="5.61324">
        <ele>933</ele>
        <time>2011-07-06T07:32:37Z</time>
      </trkpt>
      <trkpt lat="45.23488" lon="5.6132">
        <ele>933</ele>
        <time>2011-07-06T07:32:38Z</time>
      </trkpt>
      <trkpt lat="45.23478" lon="5.61313">
        <ele>933</ele>
        <time>2011-07-06T07:32:39Z</time>
      </trkpt>
      <trkpt lat="45.23468" lon="5.6131">
        <ele>933</ele>
        <time>2011-07-06T07:32:40Z</time>
      </trkpt>
      <trkpt lat="45.2346" lon="5.61307">
        <ele>932</ele>
        <time>2011-07-06T07:32:41Z</time>
      </trkpt>
      <trkpt lat="45.23452" lon="5.61301">
        <ele>932</ele>
        <time>2011-07-06T07:32:42Z</time>
      </trkpt>
      <trkpt lat="45.23444" lon="5.61297">
        <ele>932</ele>
        <time>2011-07-06T07:32:43Z</time>
      </trkpt>
      <trkpt lat="45.23436" lon="5.61293">
        <ele>932</ele>
        <time>2011-07-06T07:32:44Z</time>
      </trkpt>
      <trkpt lat="45.23426" lon="5.61291">
        <ele>932</ele>
        <time>2011-07-06T07:32:45Z</time>
      </trkpt>
      <trkpt lat="45.23419" lon="5.61289">
        <ele>932</ele>
        <time>2011-07-06T07:32:46Z</time>
      </trkpt>
      <trkpt lat="45.2341" lon="5.61289">
        <ele>931</ele>
        <time>2011-07-06T07:32:47Z</time>
      </trkpt>
      <trkpt lat="45.23401" lon="5.61288">
        <ele>931</ele>
        <time>2011-07-06T07:32:48Z</time>
      </trkpt>
      <trkpt lat="45.23392" lon="5.6129">
        <ele>931</ele>
        <time>2011-07-06T07:32:49Z</time>
      </trkpt>
      <trkpt lat="45.23382" lon="5.6129">
        <ele>931</ele>
        <time>2011-07-06T07:32:50Z</time>
      </trkpt>
      <trkpt lat="45.23373" lon="5.61295">
        <ele>931</ele>
        <time>2011-07-06T07:32:51Z</time>
      </trkpt>
      <trkpt lat="45.2336" lon="5.61297">
        <ele>931</ele>
        <time>2011-07-06T07:32:52Z</time>
      </trkpt>
      <trkpt lat="45.23348" lon="5.613">
        <ele>930</ele>
        <time>2011-07-06T07:32:53Z</time>
      </trkpt>
      <trkpt lat="45.23334" lon="5.61304">
        <ele>929</ele>
        <time>2011-07-06T07:32:54Z</time>
      </trkpt>
      <trkpt lat="45.23321" lon="5.61313">
        <ele>929</ele>
        <time>2011-07-06T07:32:55Z</time>
      </trkpt>
      <trkpt lat="45.23312" lon="5.61322">
        <ele>929</ele>
        <time>2011-07-06T07:32:56Z</time>
      </trkpt>
      <trkpt lat="45.23301" lon="5.61328">
        <ele>930</ele>
        <time>2011-07-06T07:32:57Z</time>
      </trkpt>
      <trkpt lat="45.23288" lon="5.61338">
        <ele>930</ele>
        <time>2011-07-06T07:32:58Z</time>
      </trkpt>
      <trkpt lat="45.23276" lon="5.61346">
        <ele>930</ele>
        <time>2011-07-06T07:32:59Z</time>
      </trkpt>
      <trkpt lat="45.23266" lon="5.61355">
        <ele>929</ele>
        <time>2011-07-06T07:33:00Z</time>
      </trkpt>
      <trkpt lat="45.23249" lon="5.61369">
        <ele>923</ele>
        <time>2011-07-06T07:33:01Z</time>
      </trkpt>
      <trkpt lat="45.23242" lon="5.61382">
        <ele>919</ele>
        <time>2011-07-06T07:33:02Z</time>
      </trkpt>
      <trkpt lat="45.23233" lon="5.61392">
        <ele>917</ele>
        <time>2011-07-06T07:33:03Z</time>
      </trkpt>
      <trkpt lat="45.23224" lon="5.61399">
        <ele>914</ele>
        <time>2011-07-06T07:33:04Z</time>
      </trkpt>
      <trkpt lat="45.23215" lon="5.61402">
        <ele>913</ele>
        <time>2011-07-06T07:33:05Z</time>
      </trkpt>
      <trkpt lat="45.23209" lon="5.61409">
        <ele>913</ele>
        <time>2011-07-06T07:33:06Z</time>
      </trkpt>
      <trkpt lat="45.23202" lon="5.61411">
        <ele>912</ele>
        <time>2011-07-06T07:33:07Z</time>
      </trkpt>
      <trkpt lat="45.23196" lon="5.61415">
        <ele>912</ele>
        <time>2011-07-06T07:33:08Z</time>
      </trkpt>
      <trkpt lat="45.23188" lon="5.61417">
        <ele>912</ele>
        <time>2011-07-06T07:33:09Z</time>
      </trkpt>
      <trkpt lat="45.23182" lon="5.61422">
        <ele>912</ele>
        <time>2011-07-06T07:33:10Z</time>
      </trkpt>
      <trkpt lat="45.23174" lon="5.61424">
        <ele>913</ele>
        <time>2011-07-06T07:33:11Z</time>
      </trkpt>
      <trkpt lat="45.23168" lon="5.61426">
        <ele>913</ele>
        <time>2011-07-06T07:33:12Z</time>
      </trkpt>
      <trkpt lat="45.23162" lon="5.61427">
        <ele>913</ele>
        <time>2011-07-06T07:33:13Z</time>
      </trkpt>
      <trkpt lat="45.23156" lon="5.61429">
        <ele>913</ele>
        <time>2011-07-06T07:33:14Z</time>
      </trkpt>
      <trkpt lat="45.23148" lon="5.61427">
        <ele>914</ele>
        <time>2011-07-06T07:33:15Z</time>
      </trkpt>
      <trkpt lat="45.23137" lon="5.61424">
        <ele>913</ele>
        <time>2011-07-06T07:33:17Z</time>
      </trkpt>
      <trkpt lat="45.2313" lon="5.61423">
        <ele>913</ele>
        <time>2011-07-06T07:33:18Z</time>
      </trkpt>
      <trkpt lat="45.23124" lon="5.61421">
        <ele>913</ele>
        <time>2011-07-06T07:33:19Z</time>
      </trkpt>
      <trkpt lat="45.2312" lon="5.61417">
        <ele>913</ele>
        <time>2011-07-06T07:33:20Z</time>
      </trkpt>
      <trkpt lat="45.23115" lon="5.61415">
        <ele>913</ele>
        <time>2011-07-06T07:33:22Z</time>
      </trkpt>
      <trkpt lat="45.2311" lon="5.61413">
        <ele>914</ele>
        <time>2011-07-06T07:33:24Z</time>
      </trkpt>
      <trkpt lat="45.23108" lon="5.61406">
        <ele>915</ele>
        <time>2011-07-06T07:33:30Z</time>
      </trkpt>
      <trkpt lat="45.2312" lon="5.6143">
        <ele>913</ele>
        <time>2011-07-06T07:34:38Z</time>
      </trkpt>
      <trkpt lat="45.23138" lon="5.61448">
        <ele>908</ele>
        <time>2011-07-06T07:34:40Z</time>
      </trkpt>
      <trkpt lat="45.23148" lon="5.61455">
        <ele>909</ele>
        <time>2011-07-06T07:34:42Z</time>
      </trkpt>
      <trkpt lat="45.23151" lon="5.61462">
        <ele>909</ele>
        <time>2011-07-06T07:34:44Z</time>
      </trkpt>
      <trkpt lat="45.23156" lon="5.61466">
        <ele>909</ele>
        <time>2011-07-06T07:34:46Z</time>
      </trkpt>
      <trkpt lat="45.2316" lon="5.61469">
        <ele>908</ele>
        <time>2011-07-06T07:34:48Z</time>
      </trkpt>
      <trkpt lat="45.23168" lon="5.61473">
        <ele>908</ele>
        <time>2011-07-06T07:34:52Z</time>
      </trkpt>
      <trkpt lat="45.23169" lon="5.6148">
        <ele>900</ele>
        <time>2011-07-06T07:34:58Z</time>
      </trkpt>
      <trkpt lat="45.2317" lon="5.61487">
        <ele>901</ele>
        <time>2011-07-06T07:35:08Z</time>
      </trkpt>
      <trkpt lat="45.23176" lon="5.61489">
        <ele>902</ele>
        <time>2011-07-06T07:35:10Z</time>
      </trkpt>
      <trkpt lat="45.23182" lon="5.61492">
        <ele>901</ele>
        <time>2011-07-06T07:35:13Z</time>
      </trkpt>
      <trkpt lat="45.23186" lon="5.61494">
        <ele>897</ele>
        <time>2011-07-06T07:35:15Z</time>
      </trkpt>
      <trkpt lat="45.23192" lon="5.61503">
        <ele>897</ele>
        <time>2011-07-06T07:35:17Z</time>
      </trkpt>
      <trkpt lat="45.23196" lon="5.61509">
        <ele>896</ele>
        <time>2011-07-06T07:35:20Z</time>
      </trkpt>
      <trkpt lat="45.23202" lon="5.61512">
        <ele>895</ele>
        <time>2011-07-06T07:35:23Z</time>
      </trkpt>
      <trkpt lat="45.23209" lon="5.61513">
        <ele>893</ele>
        <time>2011-07-06T07:35:25Z</time>
      </trkpt>
      <trkpt lat="45.23211" lon="5.61519">
        <ele>893</ele>
        <time>2011-07-06T07:35:26Z</time>
      </trkpt>
      <trkpt lat="45.23219" lon="5.6152">
        <ele>892</ele>
        <time>2011-07-06T07:35:28Z</time>
      </trkpt>
      <trkpt lat="45.23225" lon="5.61522">
        <ele>891</ele>
        <time>2011-07-06T07:35:30Z</time>
      </trkpt>
      <trkpt lat="45.23231" lon="5.6152">
        <ele>891</ele>
        <time>2011-07-06T07:35:32Z</time>
      </trkpt>
      <trkpt lat="45.23238" lon="5.61523">
        <ele>890</ele>
        <time>2011-07-06T07:35:35Z</time>
      </trkpt>
      <trkpt lat="45.23243" lon="5.6152">
        <ele>888</ele>
        <time>2011-07-06T07:35:37Z</time>
      </trkpt>
      <trkpt lat="45.2325" lon="5.61522">
        <ele>887</ele>
        <time>2011-07-06T07:35:40Z</time>
      </trkpt>
      <trkpt lat="45.23256" lon="5.61525">
        <ele>886</ele>
        <time>2011-07-06T07:35:43Z</time>
      </trkpt>
      <trkpt lat="45.2326" lon="5.61528">
        <ele>886</ele>
        <time>2011-07-06T07:35:46Z</time>
      </trkpt>
      <trkpt lat="45.23261" lon="5.61535">
        <ele>888</ele>
        <time>2011-07-06T07:36:25Z</time>
      </trkpt>
      <trkpt lat="45.23332" lon="5.61651">
        <ele>876</ele>
        <time>2011-07-06T07:36:45Z</time>
      </trkpt>
      <trkpt lat="45.23341" lon="5.61671">
        <ele>875</ele>
        <time>2011-07-06T07:36:50Z</time>
      </trkpt>
      <trkpt lat="45.2334" lon="5.61698">
        <ele>873</ele>
        <time>2011-07-06T07:36:55Z</time>
      </trkpt>
      <trkpt lat="45.23342" lon="5.61679">
        <ele>858</ele>
        <time>2011-07-06T07:36:59Z</time>
      </trkpt>
      <trkpt lat="45.23342" lon="5.6169">
        <ele>854</ele>
        <time>2011-07-06T07:37:08Z</time>
      </trkpt>
      <trkpt lat="45.23318" lon="5.61676">
        <ele>855</ele>
        <time>2011-07-06T07:37:14Z</time>
      </trkpt>
      <trkpt lat="45.23307" lon="5.61682">
        <ele>853</ele>
        <time>2011-07-06T07:37:18Z</time>
      </trkpt>
      <trkpt lat="45.23306" lon="5.61697">
        <ele>851</ele>
        <time>2011-07-06T07:37:21Z</time>
      </trkpt>
      <trkpt lat="45.23302" lon="5.61707">
        <ele>850</ele>
        <time>2011-07-06T07:37:24Z</time>
      </trkpt>
      <trkpt lat="45.23306" lon="5.61719">
        <ele>849</ele>
        <time>2011-07-06T07:37:26Z</time>
      </trkpt>
      <trkpt lat="45.23294" lon="5.61747">
        <ele>848</ele>
        <time>2011-07-06T07:37:35Z</time>
      </trkpt>
      <trkpt lat="45.23295" lon="5.61757">
        <ele>848</ele>
        <time>2011-07-06T07:37:37Z</time>
      </trkpt>
      <trkpt lat="45.23299" lon="5.61767">
        <ele>849</ele>
        <time>2011-07-06T07:37:39Z</time>
      </trkpt>
      <trkpt lat="45.23315" lon="5.61798">
        <ele>844</ele>
        <time>2011-07-06T07:37:42Z</time>
      </trkpt>
      <trkpt lat="45.23318" lon="5.61807">
        <ele>842</ele>
        <time>2011-07-06T07:37:44Z</time>
      </trkpt>
      <trkpt lat="45.23318" lon="5.61813">
        <ele>842</ele>
        <time>2011-07-06T07:37:45Z</time>
      </trkpt>
      <trkpt lat="45.23327" lon="5.61818">
        <ele>840</ele>
        <time>2011-07-06T07:37:47Z</time>
      </trkpt>
      <trkpt lat="45.23334" lon="5.61826">
        <ele>837</ele>
        <time>2011-07-06T07:37:48Z</time>
      </trkpt>
      <trkpt lat="45.23342" lon="5.61828">
        <ele>834</ele>
        <time>2011-07-06T07:37:50Z</time>
      </trkpt>
      <trkpt lat="45.23345" lon="5.61834">
        <ele>827</ele>
        <time>2011-07-06T07:37:52Z</time>
      </trkpt>
      <trkpt lat="45.2335" lon="5.61846">
        <ele>821</ele>
        <time>2011-07-06T07:37:55Z</time>
      </trkpt>
      <trkpt lat="45.23354" lon="5.61851">
        <ele>813</ele>
        <time>2011-07-06T07:37:56Z</time>
      </trkpt>
      <trkpt lat="45.23357" lon="5.61856">
        <ele>806</ele>
        <time>2011-07-06T07:37:58Z</time>
      </trkpt>
      <trkpt lat="45.23362" lon="5.6186">
        <ele>795</ele>
        <time>2011-07-06T07:38:01Z</time>
      </trkpt>
      <trkpt lat="45.23366" lon="5.61864">
        <ele>792</ele>
        <time>2011-07-06T07:38:03Z</time>
      </trkpt>
      <trkpt lat="45.23374" lon="5.61869">
        <ele>789</ele>
        <time>2011-07-06T07:38:05Z</time>
      </trkpt>
      <trkpt lat="45.23382" lon="5.61872">
        <ele>789</ele>
        <time>2011-07-06T07:38:07Z</time>
      </trkpt>
      <trkpt lat="45.23387" lon="5.61874">
        <ele>789</ele>
        <time>2011-07-06T07:38:08Z</time>
      </trkpt>
      <trkpt lat="45.23393" lon="5.61875">
        <ele>789</ele>
        <time>2011-07-06T07:38:09Z</time>
      </trkpt>
      <trkpt lat="45.23397" lon="5.61874">
        <ele>789</ele>
        <time>2011-07-06T07:38:10Z</time>
      </trkpt>
      <trkpt lat="45.23404" lon="5.61877">
        <ele>788</ele>
        <time>2011-07-06T07:38:11Z</time>
      </trkpt>
      <trkpt lat="45.23411" lon="5.61877">
        <ele>788</ele>
        <time>2011-07-06T07:38:12Z</time>
      </trkpt>
      <trkpt lat="45.2342" lon="5.61878">
        <ele>788</ele>
        <time>2011-07-06T07:38:13Z</time>
      </trkpt>
      <trkpt lat="45.23426" lon="5.6188">
        <ele>788</ele>
        <time>2011-07-06T07:38:14Z</time>
      </trkpt>
      <trkpt lat="45.23434" lon="5.61882">
        <ele>788</ele>
        <time>2011-07-06T07:38:15Z</time>
      </trkpt>
      <trkpt lat="45.23443" lon="5.61885">
        <ele>788</ele>
        <time>2011-07-06T07:38:16Z</time>
      </trkpt>
      <trkpt lat="45.23452" lon="5.61886">
        <ele>787</ele>
        <time>2011-07-06T07:38:17Z</time>
      </trkpt>
      <trkpt lat="45.2346" lon="5.61888">
        <ele>787</ele>
        <time>2011-07-06T07:38:18Z</time>
      </trkpt>
      <trkpt lat="45.23467" lon="5.6189">
        <ele>787</ele>
        <time>2011-07-06T07:38:19Z</time>
      </trkpt>
      <trkpt lat="45.23474" lon="5.61887">
        <ele>787</ele>
        <time>2011-07-06T07:38:20Z</time>
      </trkpt>
      <trkpt lat="45.23481" lon="5.61888">
        <ele>787</ele>
        <time>2011-07-06T07:38:21Z</time>
      </trkpt>
      <trkpt lat="45.23488" lon="5.61887">
        <ele>787</ele>
        <time>2011-07-06T07:38:22Z</time>
      </trkpt>
      <trkpt lat="45.23494" lon="5.61893">
        <ele>787</ele>
        <time>2011-07-06T07:38:23Z</time>
      </trkpt>
      <trkpt lat="45.23499" lon="5.61896">
        <ele>786</ele>
        <time>2011-07-06T07:38:24Z</time>
      </trkpt>
      <trkpt lat="45.23506" lon="5.61898">
        <ele>786</ele>
        <time>2011-07-06T07:38:25Z</time>
      </trkpt>
      <trkpt lat="45.2352" lon="5.619">
        <ele>787</ele>
        <time>2011-07-06T07:38:27Z</time>
      </trkpt>
      <trkpt lat="45.23527" lon="5.619">
        <ele>787</ele>
        <time>2011-07-06T07:38:28Z</time>
      </trkpt>
      <trkpt lat="45.23535" lon="5.61904">
        <ele>787</ele>
        <time>2011-07-06T07:38:29Z</time>
      </trkpt>
      <trkpt lat="45.23541" lon="5.61907">
        <ele>786</ele>
        <time>2011-07-06T07:38:30Z</time>
      </trkpt>
      <trkpt lat="45.23546" lon="5.61903">
        <ele>787</ele>
        <time>2011-07-06T07:38:31Z</time>
      </trkpt>
      <trkpt lat="45.23556" lon="5.61906">
        <ele>787</ele>
        <time>2011-07-06T07:38:32Z</time>
      </trkpt>
      <trkpt lat="45.23566" lon="5.61906">
        <ele>787</ele>
        <time>2011-07-06T07:38:33Z</time>
      </trkpt>
      <trkpt lat="45.23575" lon="5.61907">
        <ele>787</ele>
        <time>2011-07-06T07:38:34Z</time>
      </trkpt>
      <trkpt lat="45.23584" lon="5.61916">
        <ele>786</ele>
        <time>2011-07-06T07:38:35Z</time>
      </trkpt>
      <trkpt lat="45.2359" lon="5.6192">
        <ele>786</ele>
        <time>2011-07-06T07:38:36Z</time>
      </trkpt>
      <trkpt lat="45.23598" lon="5.61924">
        <ele>786</ele>
        <time>2011-07-06T07:38:37Z</time>
      </trkpt>
      <trkpt lat="45.23606" lon="5.61922">
        <ele>786</ele>
        <time>2011-07-06T07:38:38Z</time>
      </trkpt>
      <trkpt lat="45.23615" lon="5.61924">
        <ele>786</ele>
        <time>2011-07-06T07:38:39Z</time>
      </trkpt>
      <trkpt lat="45.23622" lon="5.61926">
        <ele>786</ele>
        <time>2011-07-06T07:38:40Z</time>
      </trkpt>
      <trkpt lat="45.23629" lon="5.61928">
        <ele>786</ele>
        <time>2011-07-06T07:38:41Z</time>
      </trkpt>
      <trkpt lat="45.23636" lon="5.61929">
        <ele>786</ele>
        <time>2011-07-06T07:38:42Z</time>
      </trkpt>
      <trkpt lat="45.23642" lon="5.61932">
        <ele>786</ele>
        <time>2011-07-06T07:38:43Z</time>
      </trkpt>
      <trkpt lat="45.23647" lon="5.61937">
        <ele>786</ele>
        <time>2011-07-06T07:38:44Z</time>
      </trkpt>
      <trkpt lat="45.23652" lon="5.61938">
        <ele>786</ele>
        <time>2011-07-06T07:38:45Z</time>
      </trkpt>
      <trkpt lat="45.23659" lon="5.61935">
        <ele>786</ele>
        <time>2011-07-06T07:38:46Z</time>
      </trkpt>
      <trkpt lat="45.23668" lon="5.61914">
        <ele>785</ele>
        <time>2011-07-06T07:38:47Z</time>
      </trkpt>
      <trkpt lat="45.23674" lon="5.6191">
        <ele>784</ele>
        <time>2011-07-06T07:38:49Z</time>
      </trkpt>
      <trkpt lat="45.23681" lon="5.61904">
        <ele>785</ele>
        <time>2011-07-06T07:38:51Z</time>
      </trkpt>
      <trkpt lat="45.23686" lon="5.61901">
        <ele>784</ele>
        <time>2011-07-06T07:38:54Z</time>
      </trkpt>
      <trkpt lat="45.2369" lon="5.6189">
        <ele>784</ele>
        <time>2011-07-06T07:38:56Z</time>
      </trkpt>
      <trkpt lat="45.23694" lon="5.61882">
        <ele>782</ele>
        <time>2011-07-06T07:38:58Z</time>
      </trkpt>
      <trkpt lat="45.23699" lon="5.61877">
        <ele>782</ele>
        <time>2011-07-06T07:39:00Z</time>
      </trkpt>
      <trkpt lat="45.23705" lon="5.61868">
        <ele>780</ele>
        <time>2011-07-06T07:39:03Z</time>
      </trkpt>
      <trkpt lat="45.23706" lon="5.6186">
        <ele>779</ele>
        <time>2011-07-06T07:39:04Z</time>
      </trkpt>
      <trkpt lat="45.23711" lon="5.6185">
        <ele>778</ele>
        <time>2011-07-06T07:39:06Z</time>
      </trkpt>
      <trkpt lat="45.23714" lon="5.61845">
        <ele>778</ele>
        <time>2011-07-06T07:39:09Z</time>
      </trkpt>
      <trkpt lat="45.23717" lon="5.61834">
        <ele>778</ele>
        <time>2011-07-06T07:39:11Z</time>
      </trkpt>
      <trkpt lat="45.2372" lon="5.61828">
        <ele>777</ele>
        <time>2011-07-06T07:39:12Z</time>
      </trkpt>
      <trkpt lat="45.23726" lon="5.61821">
        <ele>778</ele>
        <time>2011-07-06T07:39:14Z</time>
      </trkpt>
      <trkpt lat="45.23734" lon="5.61815">
        <ele>778</ele>
        <time>2011-07-06T07:39:16Z</time>
      </trkpt>
      <trkpt lat="45.23741" lon="5.61811">
        <ele>778</ele>
        <time>2011-07-06T07:39:18Z</time>
      </trkpt>
      <trkpt lat="45.23745" lon="5.61809">
        <ele>778</ele>
        <time>2011-07-06T07:39:19Z</time>
      </trkpt>
      <trkpt lat="45.2375" lon="5.61807">
        <ele>778</ele>
        <time>2011-07-06T07:39:20Z</time>
      </trkpt>
      <trkpt lat="45.23755" lon="5.61806">
        <ele>778</ele>
        <time>2011-07-06T07:39:21Z</time>
      </trkpt>
      <trkpt lat="45.23765" lon="5.61801">
        <ele>778</ele>
        <time>2011-07-06T07:39:23Z</time>
      </trkpt>
      <trkpt lat="45.23771" lon="5.61796">
        <ele>778</ele>
        <time>2011-07-06T07:39:25Z</time>
      </trkpt>
      <trkpt lat="45.23782" lon="5.6179">
        <ele>778</ele>
        <time>2011-07-06T07:39:27Z</time>
      </trkpt>
      <trkpt lat="45.23785" lon="5.61781">
        <ele>779</ele>
        <time>2011-07-06T07:39:29Z</time>
      </trkpt>
      <trkpt lat="45.23794" lon="5.61774">
        <ele>778</ele>
        <time>2011-07-06T07:39:31Z</time>
      </trkpt>
      <trkpt lat="45.23801" lon="5.61763">
        <ele>778</ele>
        <time>2011-07-06T07:39:32Z</time>
      </trkpt>
      <trkpt lat="45.23805" lon="5.6176">
        <ele>778</ele>
        <time>2011-07-06T07:39:33Z</time>
      </trkpt>
      <trkpt lat="45.23812" lon="5.61743">
        <ele>777</ele>
        <time>2011-07-06T07:39:35Z</time>
      </trkpt>
      <trkpt lat="45.23816" lon="5.61737">
        <ele>778</ele>
        <time>2011-07-06T07:39:36Z</time>
      </trkpt>
      <trkpt lat="45.23822" lon="5.61726">
        <ele>777</ele>
        <time>2011-07-06T07:39:37Z</time>
      </trkpt>
      <trkpt lat="45.23824" lon="5.6172">
        <ele>777</ele>
        <time>2011-07-06T07:39:38Z</time>
      </trkpt>
      <trkpt lat="45.23831" lon="5.61705">
        <ele>777</ele>
        <time>2011-07-06T07:39:40Z</time>
      </trkpt>
      <trkpt lat="45.23835" lon="5.617">
        <ele>777</ele>
        <time>2011-07-06T07:39:41Z</time>
      </trkpt>
      <trkpt lat="45.23838" lon="5.61694">
        <ele>776</ele>
        <time>2011-07-06T07:39:42Z</time>
      </trkpt>
      <trkpt lat="45.23846" lon="5.61688">
        <ele>776</ele>
        <time>2011-07-06T07:39:44Z</time>
      </trkpt>
      <trkpt lat="45.2385" lon="5.61682">
        <ele>776</ele>
        <time>2011-07-06T07:39:45Z</time>
      </trkpt>
      <trkpt lat="45.23857" lon="5.61672">
        <ele>777</ele>
        <time>2011-07-06T07:39:46Z</time>
      </trkpt>
      <trkpt lat="45.23863" lon="5.61666">
        <ele>777</ele>
        <time>2011-07-06T07:39:47Z</time>
      </trkpt>
      <trkpt lat="45.23866" lon="5.61659">
        <ele>778</ele>
        <time>2011-07-06T07:39:48Z</time>
      </trkpt>
      <trkpt lat="45.2387" lon="5.61656">
        <ele>778</ele>
        <time>2011-07-06T07:39:49Z</time>
      </trkpt>
      <trkpt lat="45.23875" lon="5.6166">
        <ele>778</ele>
        <time>2011-07-06T07:39:50Z</time>
      </trkpt>
      <trkpt lat="45.23885" lon="5.61654">
        <ele>778</ele>
        <time>2011-07-06T07:39:52Z</time>
      </trkpt>
      <trkpt lat="45.2389" lon="5.61653">
        <ele>778</ele>
        <time>2011-07-06T07:39:53Z</time>
      </trkpt>
      <trkpt lat="45.23895" lon="5.61656">
        <ele>779</ele>
        <time>2011-07-06T07:39:54Z</time>
      </trkpt>
      <trkpt lat="45.23902" lon="5.61656">
        <ele>779</ele>
        <time>2011-07-06T07:39:55Z</time>
      </trkpt>
      <trkpt lat="45.23909" lon="5.61656">
        <ele>779</ele>
        <time>2011-07-06T07:39:56Z</time>
      </trkpt>
      <trkpt lat="45.23914" lon="5.61656">
        <ele>779</ele>
        <time>2011-07-06T07:39:57Z</time>
      </trkpt>
      <trkpt lat="45.23923" lon="5.61656">
        <ele>777</ele>
        <time>2011-07-06T07:39:59Z</time>
      </trkpt>
      <trkpt lat="45.23927" lon="5.61658">
        <ele>776</ele>
        <time>2011-07-06T07:40:00Z</time>
      </trkpt>
      <trkpt lat="45.23933" lon="5.61667">
        <ele>775</ele>
        <time>2011-07-06T07:40:03Z</time>
      </trkpt>
      <trkpt lat="45.2394" lon="5.61676">
        <ele>771</ele>
        <time>2011-07-06T07:40:05Z</time>
      </trkpt>
      <trkpt lat="45.23944" lon="5.61681">
        <ele>770</ele>
        <time>2011-07-06T07:40:06Z</time>
      </trkpt>
      <trkpt lat="45.23944" lon="5.61687">
        <ele>768</ele>
        <time>2011-07-06T07:40:09Z</time>
      </trkpt>
      <trkpt lat="45.23947" lon="5.61676">
        <ele>765</ele>
        <time>2011-07-06T07:40:13Z</time>
      </trkpt>
      <trkpt lat="45.2395" lon="5.61669">
        <ele>763</ele>
        <time>2011-07-06T07:40:15Z</time>
      </trkpt>
      <trkpt lat="45.23954" lon="5.61664">
        <ele>762</ele>
        <time>2011-07-06T07:40:22Z</time>
      </trkpt>
      <trkpt lat="45.23945" lon="5.61652">
        <ele>759</ele>
        <time>2011-07-06T07:40:48Z</time>
      </trkpt>
      <trkpt lat="45.23928" lon="5.61667">
        <ele>756</ele>
        <time>2011-07-06T07:40:51Z</time>
      </trkpt>
      <trkpt lat="45.23923" lon="5.61689">
        <ele>751</ele>
        <time>2011-07-06T07:40:54Z</time>
      </trkpt>
      <trkpt lat="45.23932" lon="5.61707">
        <ele>749</ele>
        <time>2011-07-06T07:40:57Z</time>
      </trkpt>
      <trkpt lat="45.23954" lon="5.61736">
        <ele>744</ele>
        <time>2011-07-06T07:41:00Z</time>
      </trkpt>
      <trkpt lat="45.23974" lon="5.61758">
        <ele>741</ele>
        <time>2011-07-06T07:41:03Z</time>
      </trkpt>
      <trkpt lat="45.23996" lon="5.61778">
        <ele>739</ele>
        <time>2011-07-06T07:41:06Z</time>
      </trkpt>
      <trkpt lat="45.24008" lon="5.61808">
        <ele>737</ele>
        <time>2011-07-06T07:41:09Z</time>
      </trkpt>
      <trkpt lat="45.24018" lon="5.61841">
        <ele>736</ele>
        <time>2011-07-06T07:41:12Z</time>
      </trkpt>
      <trkpt lat="45.24029" lon="5.61868">
        <ele>735</ele>
        <time>2011-07-06T07:41:15Z</time>
      </trkpt>
      <trkpt lat="45.24039" lon="5.61893">
        <ele>735</ele>
        <time>2011-07-06T07:41:18Z</time>
      </trkpt>
      <trkpt lat="45.24049" lon="5.61919">
        <ele>735</ele>
        <time>2011-07-06T07:41:21Z</time>
      </trkpt>
      <trkpt lat="45.24057" lon="5.61924">
        <ele>736</ele>
        <time>2011-07-06T07:41:24Z</time>
      </trkpt>
      <trkpt lat="45.24051" lon="5.61932">
        <ele>733</ele>
        <time>2011-07-06T07:41:30Z</time>
      </trkpt>
      <trkpt lat="45.24047" lon="5.6193">
        <ele>734</ele>
        <time>2011-07-06T07:41:31Z</time>
      </trkpt>
      <trkpt lat="45.2404" lon="5.61918">
        <ele>733</ele>
        <time>2011-07-06T07:41:33Z</time>
      </trkpt>
      <trkpt lat="45.24032" lon="5.61907">
        <ele>732</ele>
        <time>2011-07-06T07:41:35Z</time>
      </trkpt>
      <trkpt lat="45.24026" lon="5.61893">
        <ele>731</ele>
        <time>2011-07-06T07:41:37Z</time>
      </trkpt>
      <trkpt lat="45.24021" lon="5.61886">
        <ele>731</ele>
        <time>2011-07-06T07:41:38Z</time>
      </trkpt>
      <trkpt lat="45.24015" lon="5.61882">
        <ele>731</ele>
        <time>2011-07-06T07:41:39Z</time>
      </trkpt>
      <trkpt lat="45.24007" lon="5.61878">
        <ele>731</ele>
        <time>2011-07-06T07:41:40Z</time>
      </trkpt>
      <trkpt lat="45.23995" lon="5.61873">
        <ele>727</ele>
        <time>2011-07-06T07:41:41Z</time>
      </trkpt>
      <trkpt lat="45.23991" lon="5.61864">
        <ele>724</ele>
        <time>2011-07-06T07:41:42Z</time>
      </trkpt>
      <trkpt lat="45.23976" lon="5.61864">
        <ele>723</ele>
        <time>2011-07-06T07:41:43Z</time>
      </trkpt>
      <trkpt lat="45.23957" lon="5.61857">
        <ele>721</ele>
        <time>2011-07-06T07:41:45Z</time>
      </trkpt>
      <trkpt lat="45.23947" lon="5.61856">
        <ele>718</ele>
        <time>2011-07-06T07:41:46Z</time>
      </trkpt>
      <trkpt lat="45.23942" lon="5.61852">
        <ele>719</ele>
        <time>2011-07-06T07:41:47Z</time>
      </trkpt>
      <trkpt lat="45.23934" lon="5.61845">
        <ele>716</ele>
        <time>2011-07-06T07:41:49Z</time>
      </trkpt>
      <trkpt lat="45.23933" lon="5.61837">
        <ele>716</ele>
        <time>2011-07-06T07:41:50Z</time>
      </trkpt>
      <trkpt lat="45.23929" lon="5.61834">
        <ele>715</ele>
        <time>2011-07-06T07:41:51Z</time>
      </trkpt>
      <trkpt lat="45.23923" lon="5.61828">
        <ele>714</ele>
        <time>2011-07-06T07:41:52Z</time>
      </trkpt>
      <trkpt lat="45.23919" lon="5.61823">
        <ele>714</ele>
        <time>2011-07-06T07:41:53Z</time>
      </trkpt>
      <trkpt lat="45.23916" lon="5.61817">
        <ele>713</ele>
        <time>2011-07-06T07:41:54Z</time>
      </trkpt>
      <trkpt lat="45.2391" lon="5.61813">
        <ele>713</ele>
        <time>2011-07-06T07:41:55Z</time>
      </trkpt>
      <trkpt lat="45.23903" lon="5.61811">
        <ele>712</ele>
        <time>2011-07-06T07:41:56Z</time>
      </trkpt>
      <trkpt lat="45.23895" lon="5.61809">
        <ele>712</ele>
        <time>2011-07-06T07:41:57Z</time>
      </trkpt>
      <trkpt lat="45.2389" lon="5.61812">
        <ele>711</ele>
        <time>2011-07-06T07:41:59Z</time>
      </trkpt>
      <trkpt lat="45.23886" lon="5.6182">
        <ele>710</ele>
        <time>2011-07-06T07:42:01Z</time>
      </trkpt>
      <trkpt lat="45.23881" lon="5.61832">
        <ele>709</ele>
        <time>2011-07-06T07:42:03Z</time>
      </trkpt>
      <trkpt lat="45.23882" lon="5.61838">
        <ele>709</ele>
        <time>2011-07-06T07:42:04Z</time>
      </trkpt>
      <trkpt lat="45.2388" lon="5.61847">
        <ele>706</ele>
        <time>2011-07-06T07:42:05Z</time>
      </trkpt>
      <trkpt lat="45.23878" lon="5.61868">
        <ele>698</ele>
        <time>2011-07-06T07:42:06Z</time>
      </trkpt>
      <trkpt lat="45.23878" lon="5.61885">
        <ele>693</ele>
        <time>2011-07-06T07:42:07Z</time>
      </trkpt>
      <trkpt lat="45.23877" lon="5.61896">
        <ele>692</ele>
        <time>2011-07-06T07:42:08Z</time>
      </trkpt>
      <trkpt lat="45.23879" lon="5.6191">
        <ele>690</ele>
        <time>2011-07-06T07:42:09Z</time>
      </trkpt>
      <trkpt lat="45.23879" lon="5.61921">
        <ele>688</ele>
        <time>2011-07-06T07:42:10Z</time>
      </trkpt>
      <trkpt lat="45.2388" lon="5.61934">
        <ele>686</ele>
        <time>2011-07-06T07:42:11Z</time>
      </trkpt>
      <trkpt lat="45.2388" lon="5.61946">
        <ele>685</ele>
        <time>2011-07-06T07:42:12Z</time>
      </trkpt>
      <trkpt lat="45.23881" lon="5.61954">
        <ele>682</ele>
        <time>2011-07-06T07:42:13Z</time>
      </trkpt>
      <trkpt lat="45.23884" lon="5.61944">
        <ele>666</ele>
        <time>2011-07-06T07:42:18Z</time>
      </trkpt>
      <trkpt lat="45.23879" lon="5.61928">
        <ele>662</ele>
        <time>2011-07-06T07:42:20Z</time>
      </trkpt>
      <trkpt lat="45.23875" lon="5.61923">
        <ele>661</ele>
        <time>2011-07-06T07:42:21Z</time>
      </trkpt>
      <trkpt lat="45.2387" lon="5.6192">
        <ele>660</ele>
        <time>2011-07-06T07:42:22Z</time>
      </trkpt>
      <trkpt lat="45.23866" lon="5.6192">
        <ele>660</ele>
        <time>2011-07-06T07:42:23Z</time>
      </trkpt>
      <trkpt lat="45.23859" lon="5.6193">
        <ele>659</ele>
        <time>2011-07-06T07:42:25Z</time>
      </trkpt>
      <trkpt lat="45.23854" lon="5.61933">
        <ele>656</ele>
        <time>2011-07-06T07:42:26Z</time>
      </trkpt>
      <trkpt lat="45.23848" lon="5.61939">
        <ele>655</ele>
        <time>2011-07-06T07:42:28Z</time>
      </trkpt>
      <trkpt lat="45.23844" lon="5.61942">
        <ele>653</ele>
        <time>2011-07-06T07:42:31Z</time>
      </trkpt>
      <trkpt lat="45.23848" lon="5.61945">
        <ele>649</ele>
        <time>2011-07-06T07:42:37Z</time>
      </trkpt>
      <trkpt lat="45.23848" lon="5.61945">
        <ele>649</ele>
        <time>2011-07-06T07:42:37Z</time>
      </trkpt>
      <trkpt lat="45.23848" lon="5.61945">
        <ele>649</ele>
        <time>2011-07-06T07:42:38Z</time>
      </trkpt>
      <trkpt lat="45.23852" lon="5.6195">
        <ele>647</ele>
        <time>2011-07-06T07:42:47Z</time>
      </trkpt>
      <trkpt lat="45.23852" lon="5.61958">
        <ele>646</ele>
        <time>2011-07-06T07:42:50Z</time>
      </trkpt>
      <trkpt lat="45.23848" lon="5.61966">
        <ele>642</ele>
        <time>2011-07-06T07:42:53Z</time>
      </trkpt>
      <trkpt lat="45.23848" lon="5.61974">
        <ele>640</ele>
        <time>2011-07-06T07:42:55Z</time>
      </trkpt>
      <trkpt lat="45.23849" lon="5.6198">
        <ele>639</ele>
        <time>2011-07-06T07:42:57Z</time>
      </trkpt>
      <trkpt lat="45.23853" lon="5.61986">
        <ele>637</ele>
        <time>2011-07-06T07:43:00Z</time>
      </trkpt>
      <trkpt lat="45.23856" lon="5.61993">
        <ele>634</ele>
        <time>2011-07-06T07:43:03Z</time>
      </trkpt>
      <trkpt lat="45.23857" lon="5.62002">
        <ele>633</ele>
        <time>2011-07-06T07:43:06Z</time>
      </trkpt>
      <trkpt lat="45.23859" lon="5.62009">
        <ele>631</ele>
        <time>2011-07-06T07:43:08Z</time>
      </trkpt>
      <trkpt lat="45.23859" lon="5.62017">
        <ele>629</ele>
        <time>2011-07-06T07:43:10Z</time>
      </trkpt>
      <trkpt lat="45.23855" lon="5.62045">
        <ele>628</ele>
        <time>2011-07-06T07:43:19Z</time>
      </trkpt>
      <trkpt lat="45.23852" lon="5.62054">
        <ele>628</ele>
        <time>2011-07-06T07:43:22Z</time>
      </trkpt>
      <trkpt lat="45.23852" lon="5.62063">
        <ele>628</ele>
        <time>2011-07-06T07:43:24Z</time>
      </trkpt>
      <trkpt lat="45.23852" lon="5.6207">
        <ele>628</ele>
        <time>2011-07-06T07:43:26Z</time>
      </trkpt>
      <trkpt lat="45.23857" lon="5.62082">
        <ele>628</ele>
        <time>2011-07-06T07:43:28Z</time>
      </trkpt>
      <trkpt lat="45.23858" lon="5.62088">
        <ele>627</ele>
        <time>2011-07-06T07:43:29Z</time>
      </trkpt>
      <trkpt lat="45.23861" lon="5.62094">
        <ele>626</ele>
        <time>2011-07-06T07:43:34Z</time>
      </trkpt>
      <trkpt lat="45.23858" lon="5.621">
        <ele>625</ele>
        <time>2011-07-06T07:43:36Z</time>
      </trkpt>
      <trkpt lat="45.23859" lon="5.62109">
        <ele>624</ele>
        <time>2011-07-06T07:43:38Z</time>
      </trkpt>
      <trkpt lat="45.23856" lon="5.62129">
        <ele>623</ele>
        <time>2011-07-06T07:43:43Z</time>
      </trkpt>
      <trkpt lat="45.23857" lon="5.6214">
        <ele>621</ele>
        <time>2011-07-06T07:43:46Z</time>
      </trkpt>
      <trkpt lat="45.23852" lon="5.62142">
        <ele>620</ele>
        <time>2011-07-06T07:43:48Z</time>
      </trkpt>
      <trkpt lat="45.23855" lon="5.62149">
        <ele>620</ele>
        <time>2011-07-06T07:43:49Z</time>
      </trkpt>
      <trkpt lat="45.23855" lon="5.62156">
        <ele>619</ele>
        <time>2011-07-06T07:43:50Z</time>
      </trkpt>
      <trkpt lat="45.23858" lon="5.62174">
        <ele>615</ele>
        <time>2011-07-06T07:43:53Z</time>
      </trkpt>
      <trkpt lat="45.2386" lon="5.62183">
        <ele>614</ele>
        <time>2011-07-06T07:43:57Z</time>
      </trkpt>
      <trkpt lat="45.23857" lon="5.62187">
        <ele>612</ele>
        <time>2011-07-06T07:44:00Z</time>
      </trkpt>
      <trkpt lat="45.23856" lon="5.62195">
        <ele>611</ele>
        <time>2011-07-06T07:44:04Z</time>
      </trkpt>
      <trkpt lat="45.23861" lon="5.62201">
        <ele>610</ele>
        <time>2011-07-06T07:44:08Z</time>
      </trkpt>
      <trkpt lat="45.23865" lon="5.62206">
        <ele>608</ele>
        <time>2011-07-06T07:44:11Z</time>
      </trkpt>
      <trkpt lat="45.23865" lon="5.62206">
        <ele>608</ele>
        <time>2011-07-06T07:44:11Z</time>
      </trkpt>
      <trkpt lat="45.23865" lon="5.62206">
        <ele>608</ele>
        <time>2011-07-06T07:44:13Z</time>
      </trkpt>
      <trkpt lat="45.23867" lon="5.62216">
        <ele>606</ele>
        <time>2011-07-06T07:44:16Z</time>
      </trkpt>
      <trkpt lat="45.23869" lon="5.62223">
        <ele>606</ele>
        <time>2011-07-06T07:44:18Z</time>
      </trkpt>
      <trkpt lat="45.23872" lon="5.62229">
        <ele>606</ele>
        <time>2011-07-06T07:44:19Z</time>
      </trkpt>
      <trkpt lat="45.2387" lon="5.62237">
        <ele>605</ele>
        <time>2011-07-06T07:44:22Z</time>
      </trkpt>
      <trkpt lat="45.23871" lon="5.62244">
        <ele>604</ele>
        <time>2011-07-06T07:44:23Z</time>
      </trkpt>
      <trkpt lat="45.23873" lon="5.62253">
        <ele>603</ele>
        <time>2011-07-06T07:44:25Z</time>
      </trkpt>
      <trkpt lat="45.23875" lon="5.62262">
        <ele>602</ele>
        <time>2011-07-06T07:44:29Z</time>
      </trkpt>
      <trkpt lat="45.23872" lon="5.62268">
        <ele>601</ele>
        <time>2011-07-06T07:44:32Z</time>
      </trkpt>
      <trkpt lat="45.23882" lon="5.62279">
        <ele>595</ele>
        <time>2011-07-06T07:44:55Z</time>
      </trkpt>
      <trkpt lat="45.23888" lon="5.62289">
        <ele>595</ele>
        <time>2011-07-06T07:44:58Z</time>
      </trkpt>
      <trkpt lat="45.23901" lon="5.62293">
        <ele>593</ele>
        <time>2011-07-06T07:45:01Z</time>
      </trkpt>
      <trkpt lat="45.23918" lon="5.62297">
        <ele>592</ele>
        <time>2011-07-06T07:45:04Z</time>
      </trkpt>
      <trkpt lat="45.23928" lon="5.62303">
        <ele>592</ele>
        <time>2011-07-06T07:45:07Z</time>
      </trkpt>
      <trkpt lat="45.23943" lon="5.62315">
        <ele>591</ele>
        <time>2011-07-06T07:45:10Z</time>
      </trkpt>
      <trkpt lat="45.23954" lon="5.62326">
        <ele>590</ele>
        <time>2011-07-06T07:45:13Z</time>
      </trkpt>
      <trkpt lat="45.23964" lon="5.62334">
        <ele>590</ele>
        <time>2011-07-06T07:45:16Z</time>
      </trkpt>
      <trkpt lat="45.23976" lon="5.62339">
        <ele>587</ele>
        <time>2011-07-06T07:45:19Z</time>
      </trkpt>
      <trkpt lat="45.2399" lon="5.62339">
        <ele>582</ele>
        <time>2011-07-06T07:45:22Z</time>
      </trkpt>
      <trkpt lat="45.23995" lon="5.62347">
        <ele>580</ele>
        <time>2011-07-06T07:45:24Z</time>
      </trkpt>
      <trkpt lat="45.24004" lon="5.62357">
        <ele>579</ele>
        <time>2011-07-06T07:45:26Z</time>
      </trkpt>
      <trkpt lat="45.24011" lon="5.62365">
        <ele>579</ele>
        <time>2011-07-06T07:45:29Z</time>
      </trkpt>
      <trkpt lat="45.24018" lon="5.62371">
        <ele>574</ele>
        <time>2011-07-06T07:45:32Z</time>
      </trkpt>
      <trkpt lat="45.24024" lon="5.62364">
        <ele>569</ele>
        <time>2011-07-06T07:45:34Z</time>
      </trkpt>
      <trkpt lat="45.24029" lon="5.6236">
        <ele>567</ele>
        <time>2011-07-06T07:45:36Z</time>
      </trkpt>
      <trkpt lat="45.24034" lon="5.62355">
        <ele>566</ele>
        <time>2011-07-06T07:45:38Z</time>
      </trkpt>
      <trkpt lat="45.24037" lon="5.6235">
        <ele>565</ele>
        <time>2011-07-06T07:45:40Z</time>
      </trkpt>
      <trkpt lat="45.24043" lon="5.62347">
        <ele>564</ele>
        <time>2011-07-06T07:45:43Z</time>
      </trkpt>
      <trkpt lat="45.24049" lon="5.62347">
        <ele>562</ele>
        <time>2011-07-06T07:45:45Z</time>
      </trkpt>
      <trkpt lat="45.24057" lon="5.62348">
        <ele>560</ele>
        <time>2011-07-06T07:45:48Z</time>
      </trkpt>
      <trkpt lat="45.24065" lon="5.6235">
        <ele>559</ele>
        <time>2011-07-06T07:45:50Z</time>
      </trkpt>
      <trkpt lat="45.24072" lon="5.62353">
        <ele>557</ele>
        <time>2011-07-06T07:45:52Z</time>
      </trkpt>
      <trkpt lat="45.24079" lon="5.62359">
        <ele>557</ele>
        <time>2011-07-06T07:45:54Z</time>
      </trkpt>
      <trkpt lat="45.24086" lon="5.6236">
        <ele>554</ele>
        <time>2011-07-06T07:45:56Z</time>
      </trkpt>
      <trkpt lat="45.24092" lon="5.62362">
        <ele>553</ele>
        <time>2011-07-06T07:45:58Z</time>
      </trkpt>
      <trkpt lat="45.24095" lon="5.62369">
        <ele>551</ele>
        <time>2011-07-06T07:46:00Z</time>
      </trkpt>
      <trkpt lat="45.24101" lon="5.62381">
        <ele>548</ele>
        <time>2011-07-06T07:46:02Z</time>
      </trkpt>
      <trkpt lat="45.24106" lon="5.62378">
        <ele>541</ele>
        <time>2011-07-06T07:46:03Z</time>
      </trkpt>
      <trkpt lat="45.24109" lon="5.62384">
        <ele>528</ele>
        <time>2011-07-06T07:46:11Z</time>
      </trkpt>
      <trkpt lat="45.24111" lon="5.62392">
        <ele>528</ele>
        <time>2011-07-06T07:46:16Z</time>
      </trkpt>
      <trkpt lat="45.24113" lon="5.62399">
        <ele>527</ele>
        <time>2011-07-06T07:46:20Z</time>
      </trkpt>
      <trkpt lat="45.24117" lon="5.62388">
        <ele>524</ele>
        <time>2011-07-06T07:46:22Z</time>
      </trkpt>
      <trkpt lat="45.24112" lon="5.62395">
        <ele>521</ele>
        <time>2011-07-06T07:46:24Z</time>
      </trkpt>
      <trkpt lat="45.2411" lon="5.62401">
        <ele>521</ele>
        <time>2011-07-06T07:46:25Z</time>
      </trkpt>
      <trkpt lat="45.24111" lon="5.62419">
        <ele>519</ele>
        <time>2011-07-06T07:46:28Z</time>
      </trkpt>
      <trkpt lat="45.24117" lon="5.62429">
        <ele>518</ele>
        <time>2011-07-06T07:46:29Z</time>
      </trkpt>
      <trkpt lat="45.24122" lon="5.62439">
        <ele>518</ele>
        <time>2011-07-06T07:46:30Z</time>
      </trkpt>
      <trkpt lat="45.24129" lon="5.6245">
        <ele>518</ele>
        <time>2011-07-06T07:46:31Z</time>
      </trkpt>
      <trkpt lat="45.24133" lon="5.6246">
        <ele>518</ele>
        <time>2011-07-06T07:46:32Z</time>
      </trkpt>
      <trkpt lat="45.24139" lon="5.62471">
        <ele>517</ele>
        <time>2011-07-06T07:46:33Z</time>
      </trkpt>
      <trkpt lat="45.24145" lon="5.6248">
        <ele>517</ele>
        <time>2011-07-06T07:46:34Z</time>
      </trkpt>
      <trkpt lat="45.24154" lon="5.62498">
        <ele>517</ele>
        <time>2011-07-06T07:46:36Z</time>
      </trkpt>
      <trkpt lat="45.24157" lon="5.62509">
        <ele>517</ele>
        <time>2011-07-06T07:46:37Z</time>
      </trkpt>
      <trkpt lat="45.24161" lon="5.62519">
        <ele>516</ele>
        <time>2011-07-06T07:46:38Z</time>
      </trkpt>
      <trkpt lat="45.24164" lon="5.62525">
        <ele>515</ele>
        <time>2011-07-06T07:46:39Z</time>
      </trkpt>
      <trkpt lat="45.24169" lon="5.62535">
        <ele>516</ele>
        <time>2011-07-06T07:46:40Z</time>
      </trkpt>
      <trkpt lat="45.24172" lon="5.62542">
        <ele>516</ele>
        <time>2011-07-06T07:46:41Z</time>
      </trkpt>
      <trkpt lat="45.24176" lon="5.6255">
        <ele>515</ele>
        <time>2011-07-06T07:46:42Z</time>
      </trkpt>
      <trkpt lat="45.24183" lon="5.62558">
        <ele>515</ele>
        <time>2011-07-06T07:46:43Z</time>
      </trkpt>
      <trkpt lat="45.24189" lon="5.62567">
        <ele>514</ele>
        <time>2011-07-06T07:46:44Z</time>
      </trkpt>
      <trkpt lat="45.24194" lon="5.62571">
        <ele>515</ele>
        <time>2011-07-06T07:46:45Z</time>
      </trkpt>
      <trkpt lat="45.242" lon="5.62578">
        <ele>514</ele>
        <time>2011-07-06T07:46:46Z</time>
      </trkpt>
      <trkpt lat="45.24209" lon="5.62585">
        <ele>514</ele>
        <time>2011-07-06T07:46:48Z</time>
      </trkpt>
      <trkpt lat="45.24214" lon="5.6259">
        <ele>514</ele>
        <time>2011-07-06T07:46:50Z</time>
      </trkpt>
      <trkpt lat="45.2422" lon="5.62593">
        <ele>514</ele>
        <time>2011-07-06T07:46:51Z</time>
      </trkpt>
      <trkpt lat="45.24227" lon="5.62599">
        <ele>514</ele>
        <time>2011-07-06T07:46:53Z</time>
      </trkpt>
      <trkpt lat="45.2423" lon="5.62606">
        <ele>514</ele>
        <time>2011-07-06T07:46:54Z</time>
      </trkpt>
      <trkpt lat="45.24235" lon="5.62606">
        <ele>512</ele>
        <time>2011-07-06T07:46:56Z</time>
      </trkpt>
      <trkpt lat="45.2424" lon="5.62613">
        <ele>511</ele>
        <time>2011-07-06T07:46:58Z</time>
      </trkpt>
      <trkpt lat="45.24242" lon="5.62623">
        <ele>509</ele>
        <time>2011-07-06T07:47:00Z</time>
      </trkpt>
      <trkpt lat="45.24243" lon="5.62631">
        <ele>507</ele>
        <time>2011-07-06T07:47:02Z</time>
      </trkpt>
      <trkpt lat="45.24246" lon="5.62642">
        <ele>505</ele>
        <time>2011-07-06T07:47:04Z</time>
      </trkpt>
      <trkpt lat="45.24242" lon="5.62648">
        <ele>504</ele>
        <time>2011-07-06T07:47:06Z</time>
      </trkpt>
      <trkpt lat="45.24238" lon="5.62653">
        <ele>504</ele>
        <time>2011-07-06T07:47:07Z</time>
      </trkpt>
      <trkpt lat="45.24233" lon="5.62664">
        <ele>502</ele>
        <time>2011-07-06T07:47:09Z</time>
      </trkpt>
      <trkpt lat="45.24229" lon="5.62668">
        <ele>502</ele>
        <time>2011-07-06T07:47:10Z</time>
      </trkpt>
      <trkpt lat="45.24219" lon="5.62672">
        <ele>502</ele>
        <time>2011-07-06T07:47:12Z</time>
      </trkpt>
      <trkpt lat="45.24214" lon="5.62674">
        <ele>503</ele>
        <time>2011-07-06T07:47:13Z</time>
      </trkpt>
      <trkpt lat="45.24203" lon="5.62677">
        <ele>502</ele>
        <time>2011-07-06T07:47:15Z</time>
      </trkpt>
      <trkpt lat="45.24198" lon="5.62679">
        <ele>502</ele>
        <time>2011-07-06T07:47:16Z</time>
      </trkpt>
      <trkpt lat="45.24192" lon="5.62682">
        <ele>502</ele>
        <time>2011-07-06T07:47:17Z</time>
      </trkpt>
      <trkpt lat="45.24184" lon="5.62688">
        <ele>501</ele>
        <time>2011-07-06T07:47:19Z</time>
      </trkpt>
      <trkpt lat="45.24175" lon="5.62688">
        <ele>501</ele>
        <time>2011-07-06T07:47:21Z</time>
      </trkpt>
      <trkpt lat="45.24169" lon="5.62687">
        <ele>500</ele>
        <time>2011-07-06T07:47:22Z</time>
      </trkpt>
      <trkpt lat="45.24164" lon="5.62686">
        <ele>500</ele>
        <time>2011-07-06T07:47:23Z</time>
      </trkpt>
      <trkpt lat="45.24159" lon="5.62684">
        <ele>499</ele>
        <time>2011-07-06T07:47:24Z</time>
      </trkpt>
      <trkpt lat="45.24152" lon="5.62681">
        <ele>498</ele>
        <time>2011-07-06T07:47:25Z</time>
      </trkpt>
      <trkpt lat="45.24147" lon="5.6268">
        <ele>498</ele>
        <time>2011-07-06T07:47:26Z</time>
      </trkpt>
      <trkpt lat="45.24137" lon="5.62674">
        <ele>497</ele>
        <time>2011-07-06T07:47:28Z</time>
      </trkpt>
      <trkpt lat="45.24129" lon="5.62668">
        <ele>495</ele>
        <time>2011-07-06T07:47:30Z</time>
      </trkpt>
      <trkpt lat="45.24123" lon="5.6267">
        <ele>494</ele>
        <time>2011-07-06T07:47:31Z</time>
      </trkpt>
      <trkpt lat="45.24114" lon="5.62671">
        <ele>490</ele>
        <time>2011-07-06T07:47:33Z</time>
      </trkpt>
      <trkpt lat="45.2411" lon="5.62676">
        <ele>486</ele>
        <time>2011-07-06T07:47:36Z</time>
      </trkpt>
      <trkpt lat="45.24111" lon="5.62685">
        <ele>480</ele>
        <time>2011-07-06T07:47:40Z</time>
      </trkpt>
      <trkpt lat="45.24116" lon="5.62692">
        <ele>477</ele>
        <time>2011-07-06T07:47:42Z</time>
      </trkpt>
      <trkpt lat="45.2412" lon="5.62696">
        <ele>474</ele>
        <time>2011-07-06T07:47:44Z</time>
      </trkpt>
      <trkpt lat="45.24128" lon="5.62704">
        <ele>472</ele>
        <time>2011-07-06T07:47:46Z</time>
      </trkpt>
      <trkpt lat="45.24134" lon="5.62712">
        <ele>471</ele>
        <time>2011-07-06T07:47:48Z</time>
      </trkpt>
      <trkpt lat="45.2414" lon="5.6272">
        <ele>470</ele>
        <time>2011-07-06T07:47:50Z</time>
      </trkpt>
      <trkpt lat="45.24147" lon="5.62725">
        <ele>469</ele>
        <time>2011-07-06T07:47:52Z</time>
      </trkpt>
      <trkpt lat="45.24154" lon="5.62732">
        <ele>467</ele>
        <time>2011-07-06T07:47:54Z</time>
      </trkpt>
      <trkpt lat="45.24158" lon="5.62735">
        <ele>467</ele>
        <time>2011-07-06T07:47:55Z</time>
      </trkpt>
      <trkpt lat="45.24162" lon="5.62739">
        <ele>466</ele>
        <time>2011-07-06T07:47:56Z</time>
      </trkpt>
      <trkpt lat="45.24168" lon="5.62744">
        <ele>466</ele>
        <time>2011-07-06T07:47:57Z</time>
      </trkpt>
      <trkpt lat="45.24172" lon="5.62748">
        <ele>464</ele>
        <time>2011-07-06T07:47:58Z</time>
      </trkpt>
      <trkpt lat="45.24178" lon="5.6275">
        <ele>463</ele>
        <time>2011-07-06T07:47:59Z</time>
      </trkpt>
      <trkpt lat="45.24183" lon="5.62753">
        <ele>462</ele>
        <time>2011-07-06T07:48:00Z</time>
      </trkpt>
      <trkpt lat="45.24189" lon="5.62757">
        <ele>462</ele>
        <time>2011-07-06T07:48:01Z</time>
      </trkpt>
      <trkpt lat="45.24193" lon="5.6276">
        <ele>461</ele>
        <time>2011-07-06T07:48:02Z</time>
      </trkpt>
      <trkpt lat="45.24199" lon="5.62766">
        <ele>460</ele>
        <time>2011-07-06T07:48:03Z</time>
      </trkpt>
      <trkpt lat="45.24204" lon="5.62772">
        <ele>459</ele>
        <time>2011-07-06T07:48:04Z</time>
      </trkpt>
      <trkpt lat="45.2421" lon="5.62777">
        <ele>458</ele>
        <time>2011-07-06T07:48:05Z</time>
      </trkpt>
      <trkpt lat="45.24218" lon="5.62785">
        <ele>458</ele>
        <time>2011-07-06T07:48:06Z</time>
      </trkpt>
      <trkpt lat="45.24224" lon="5.62792">
        <ele>458</ele>
        <time>2011-07-06T07:48:07Z</time>
      </trkpt>
      <trkpt lat="45.24229" lon="5.62794">
        <ele>456</ele>
        <time>2011-07-06T07:48:08Z</time>
      </trkpt>
      <trkpt lat="45.24236" lon="5.62799">
        <ele>456</ele>
        <time>2011-07-06T07:48:09Z</time>
      </trkpt>
      <trkpt lat="45.24241" lon="5.62806">
        <ele>456</ele>
        <time>2011-07-06T07:48:10Z</time>
      </trkpt>
      <trkpt lat="45.24247" lon="5.62808">
        <ele>455</ele>
        <time>2011-07-06T07:48:11Z</time>
      </trkpt>
      <trkpt lat="45.2425" lon="5.62816">
        <ele>454</ele>
        <time>2011-07-06T07:48:12Z</time>
      </trkpt>
      <trkpt lat="45.2425" lon="5.62823">
        <ele>453</ele>
        <time>2011-07-06T07:48:13Z</time>
      </trkpt>
      <trkpt lat="45.24252" lon="5.6283">
        <ele>453</ele>
        <time>2011-07-06T07:48:14Z</time>
      </trkpt>
      <trkpt lat="45.24251" lon="5.62837">
        <ele>452</ele>
        <time>2011-07-06T07:48:15Z</time>
      </trkpt>
      <trkpt lat="45.24243" lon="5.62834">
        <ele>449</ele>
        <time>2011-07-06T07:48:19Z</time>
      </trkpt>
      <trkpt lat="45.24239" lon="5.62832">
        <ele>448</ele>
        <time>2011-07-06T07:48:20Z</time>
      </trkpt>
      <trkpt lat="45.24235" lon="5.62827">
        <ele>447</ele>
        <time>2011-07-06T07:48:21Z</time>
      </trkpt>
      <trkpt lat="45.24229" lon="5.62821">
        <ele>447</ele>
        <time>2011-07-06T07:48:22Z</time>
      </trkpt>
      <trkpt lat="45.24225" lon="5.62818">
        <ele>447</ele>
        <time>2011-07-06T07:48:23Z</time>
      </trkpt>
      <trkpt lat="45.24221" lon="5.62814">
        <ele>447</ele>
        <time>2011-07-06T07:48:24Z</time>
      </trkpt>
      <trkpt lat="45.24216" lon="5.6281">
        <ele>447</ele>
        <time>2011-07-06T07:48:25Z</time>
      </trkpt>
      <trkpt lat="45.24203" lon="5.62799">
        <ele>446</ele>
        <time>2011-07-06T07:48:28Z</time>
      </trkpt>
      <trkpt lat="45.24189" lon="5.62797">
        <ele>446</ele>
        <time>2011-07-06T07:48:30Z</time>
      </trkpt>
      <trkpt lat="45.24182" lon="5.62794">
        <ele>446</ele>
        <time>2011-07-06T07:48:31Z</time>
      </trkpt>
      <trkpt lat="45.24176" lon="5.62792">
        <ele>446</ele>
        <time>2011-07-06T07:48:32Z</time>
      </trkpt>
      <trkpt lat="45.2417" lon="5.6279">
        <ele>446</ele>
        <time>2011-07-06T07:48:33Z</time>
      </trkpt>
      <trkpt lat="45.24164" lon="5.62789">
        <ele>445</ele>
        <time>2011-07-06T07:48:34Z</time>
      </trkpt>
      <trkpt lat="45.24158" lon="5.6279">
        <ele>445</ele>
        <time>2011-07-06T07:48:35Z</time>
      </trkpt>
      <trkpt lat="45.24152" lon="5.62786">
        <ele>444</ele>
        <time>2011-07-06T07:48:36Z</time>
      </trkpt>
      <trkpt lat="45.24145" lon="5.62784">
        <ele>444</ele>
        <time>2011-07-06T07:48:37Z</time>
      </trkpt>
      <trkpt lat="45.24139" lon="5.62784">
        <ele>444</ele>
        <time>2011-07-06T07:48:38Z</time>
      </trkpt>
      <trkpt lat="45.24132" lon="5.62781">
        <ele>443</ele>
        <time>2011-07-06T07:48:39Z</time>
      </trkpt>
      <trkpt lat="45.24125" lon="5.6278">
        <ele>443</ele>
        <time>2011-07-06T07:48:40Z</time>
      </trkpt>
      <trkpt lat="45.24114" lon="5.62775">
        <ele>443</ele>
        <time>2011-07-06T07:48:42Z</time>
      </trkpt>
      <trkpt lat="45.2411" lon="5.62772">
        <ele>442</ele>
        <time>2011-07-06T07:48:43Z</time>
      </trkpt>
      <trkpt lat="45.24104" lon="5.62768">
        <ele>442</ele>
        <time>2011-07-06T07:48:44Z</time>
      </trkpt>
      <trkpt lat="45.24093" lon="5.62771">
        <ele>440</ele>
        <time>2011-07-06T07:48:46Z</time>
      </trkpt>
      <trkpt lat="45.24087" lon="5.62772">
        <ele>439</ele>
        <time>2011-07-06T07:48:47Z</time>
      </trkpt>
      <trkpt lat="45.24079" lon="5.62777">
        <ele>438</ele>
        <time>2011-07-06T07:48:48Z</time>
      </trkpt>
      <trkpt lat="45.24072" lon="5.6278">
        <ele>436</ele>
        <time>2011-07-06T07:48:49Z</time>
      </trkpt>
      <trkpt lat="45.24065" lon="5.62787">
        <ele>436</ele>
        <time>2011-07-06T07:48:50Z</time>
      </trkpt>
      <trkpt lat="45.24059" lon="5.62792">
        <ele>436</ele>
        <time>2011-07-06T07:48:51Z</time>
      </trkpt>
      <trkpt lat="45.24054" lon="5.62796">
        <ele>436</ele>
        <time>2011-07-06T07:48:52Z</time>
      </trkpt>
      <trkpt lat="45.2405" lon="5.62801">
        <ele>434</ele>
        <time>2011-07-06T07:48:53Z</time>
      </trkpt>
      <trkpt lat="45.24045" lon="5.62809">
        <ele>434</ele>
        <time>2011-07-06T07:48:55Z</time>
      </trkpt>
      <trkpt lat="45.24041" lon="5.62815">
        <ele>433</ele>
        <time>2011-07-06T07:48:57Z</time>
      </trkpt>
      <trkpt lat="45.2404" lon="5.62824">
        <ele>432</ele>
        <time>2011-07-06T07:48:59Z</time>
      </trkpt>
      <trkpt lat="45.24043" lon="5.62837">
        <ele>431</ele>
        <time>2011-07-06T07:49:01Z</time>
      </trkpt>
      <trkpt lat="45.24049" lon="5.62843">
        <ele>428</ele>
        <time>2011-07-06T07:49:03Z</time>
      </trkpt>
      <trkpt lat="45.24054" lon="5.62849">
        <ele>425</ele>
        <time>2011-07-06T07:49:06Z</time>
      </trkpt>
      <trkpt lat="45.24058" lon="5.62851">
        <ele>424</ele>
        <time>2011-07-06T07:49:08Z</time>
      </trkpt>
      <trkpt lat="45.24063" lon="5.62852">
        <ele>423</ele>
        <time>2011-07-06T07:49:10Z</time>
      </trkpt>
      <trkpt lat="45.24067" lon="5.62853">
        <ele>422</ele>
        <time>2011-07-06T07:49:12Z</time>
      </trkpt>
      <trkpt lat="45.24075" lon="5.62858">
        <ele>421</ele>
        <time>2011-07-06T07:49:14Z</time>
      </trkpt>
      <trkpt lat="45.24082" lon="5.6286">
        <ele>419</ele>
        <time>2011-07-06T07:49:16Z</time>
      </trkpt>
      <trkpt lat="45.24088" lon="5.62864">
        <ele>418</ele>
        <time>2011-07-06T07:49:18Z</time>
      </trkpt>
      <trkpt lat="45.24095" lon="5.62866">
        <ele>417</ele>
        <time>2011-07-06T07:49:20Z</time>
      </trkpt>
      <trkpt lat="45.24101" lon="5.62871">
        <ele>416</ele>
        <time>2011-07-06T07:49:22Z</time>
      </trkpt>
      <trkpt lat="45.24106" lon="5.62875">
        <ele>415</ele>
        <time>2011-07-06T07:49:24Z</time>
      </trkpt>
      <trkpt lat="45.24109" lon="5.62881">
        <ele>415</ele>
        <time>2011-07-06T07:49:26Z</time>
      </trkpt>
      <trkpt lat="45.24116" lon="5.62883">
        <ele>412</ele>
        <time>2011-07-06T07:49:29Z</time>
      </trkpt>
      <trkpt lat="45.2412" lon="5.62888">
        <ele>409</ele>
        <time>2011-07-06T07:49:32Z</time>
      </trkpt>
      <trkpt lat="45.24123" lon="5.62894">
        <ele>410</ele>
        <time>2011-07-06T07:49:34Z</time>
      </trkpt>
      <trkpt lat="45.24128" lon="5.62899">
        <ele>410</ele>
        <time>2011-07-06T07:49:37Z</time>
      </trkpt>
      <trkpt lat="45.24133" lon="5.62906">
        <ele>409</ele>
        <time>2011-07-06T07:49:40Z</time>
      </trkpt>
      <trkpt lat="45.24139" lon="5.62912">
        <ele>407</ele>
        <time>2011-07-06T07:49:42Z</time>
      </trkpt>
      <trkpt lat="45.24143" lon="5.62919">
        <ele>406</ele>
        <time>2011-07-06T07:49:44Z</time>
      </trkpt>
      <trkpt lat="45.24153" lon="5.62923">
        <ele>405</ele>
        <time>2011-07-06T07:49:46Z</time>
      </trkpt>
      <trkpt lat="45.2416" lon="5.62929">
        <ele>404</ele>
        <time>2011-07-06T07:49:48Z</time>
      </trkpt>
      <trkpt lat="45.24164" lon="5.62936">
        <ele>404</ele>
        <time>2011-07-06T07:49:49Z</time>
      </trkpt>
      <trkpt lat="45.2417" lon="5.62937">
        <ele>403</ele>
        <time>2011-07-06T07:49:50Z</time>
      </trkpt>
      <trkpt lat="45.24174" lon="5.6294">
        <ele>403</ele>
        <time>2011-07-06T07:49:51Z</time>
      </trkpt>
      <trkpt lat="45.24181" lon="5.62946">
        <ele>403</ele>
        <time>2011-07-06T07:49:52Z</time>
      </trkpt>
      <trkpt lat="45.24186" lon="5.62947">
        <ele>403</ele>
        <time>2011-07-06T07:49:53Z</time>
      </trkpt>
      <trkpt lat="45.24192" lon="5.62948">
        <ele>403</ele>
        <time>2011-07-06T07:49:54Z</time>
      </trkpt>
      <trkpt lat="45.24197" lon="5.62954">
        <ele>403</ele>
        <time>2011-07-06T07:49:56Z</time>
      </trkpt>
      <trkpt lat="45.24203" lon="5.62959">
        <ele>402</ele>
        <time>2011-07-06T07:49:58Z</time>
      </trkpt>
      <trkpt lat="45.24207" lon="5.62962">
        <ele>402</ele>
        <time>2011-07-06T07:49:59Z</time>
      </trkpt>
      <trkpt lat="45.24213" lon="5.62961">
        <ele>401</ele>
        <time>2011-07-06T07:50:01Z</time>
      </trkpt>
      <trkpt lat="45.24219" lon="5.62962">
        <ele>399</ele>
        <time>2011-07-06T07:50:03Z</time>
      </trkpt>
      <trkpt lat="45.2422" lon="5.62975">
        <ele>393</ele>
        <time>2011-07-06T07:50:14Z</time>
      </trkpt>
      <trkpt lat="45.24224" lon="5.62977">
        <ele>392</ele>
        <time>2011-07-06T07:50:15Z</time>
      </trkpt>
      <trkpt lat="45.24227" lon="5.62984">
        <ele>391</ele>
        <time>2011-07-06T07:50:16Z</time>
      </trkpt>
      <trkpt lat="45.24229" lon="5.62993">
        <ele>390</ele>
        <time>2011-07-06T07:50:18Z</time>
      </trkpt>
      <trkpt lat="45.24233" lon="5.62998">
        <ele>390</ele>
        <time>2011-07-06T07:50:19Z</time>
      </trkpt>
      <trkpt lat="45.2424" lon="5.63006">
        <ele>389</ele>
        <time>2011-07-06T07:50:21Z</time>
      </trkpt>
      <trkpt lat="45.24244" lon="5.63011">
        <ele>389</ele>
        <time>2011-07-06T07:50:22Z</time>
      </trkpt>
      <trkpt lat="45.24252" lon="5.63016">
        <ele>387</ele>
        <time>2011-07-06T07:50:24Z</time>
      </trkpt>
      <trkpt lat="45.24256" lon="5.6302">
        <ele>386</ele>
        <time>2011-07-06T07:50:25Z</time>
      </trkpt>
      <trkpt lat="45.24261" lon="5.63024">
        <ele>386</ele>
        <time>2011-07-06T07:50:26Z</time>
      </trkpt>
      <trkpt lat="45.24273" lon="5.63033">
        <ele>386</ele>
        <time>2011-07-06T07:50:28Z</time>
      </trkpt>
      <trkpt lat="45.24279" lon="5.63035">
        <ele>385</ele>
        <time>2011-07-06T07:50:29Z</time>
      </trkpt>
      <trkpt lat="45.24286" lon="5.63041">
        <ele>384</ele>
        <time>2011-07-06T07:50:30Z</time>
      </trkpt>
      <trkpt lat="45.24293" lon="5.63046">
        <ele>383</ele>
        <time>2011-07-06T07:50:31Z</time>
      </trkpt>
      <trkpt lat="45.24299" lon="5.63054">
        <ele>381</ele>
        <time>2011-07-06T07:50:32Z</time>
      </trkpt>
      <trkpt lat="45.24307" lon="5.6306">
        <ele>380</ele>
        <time>2011-07-06T07:50:33Z</time>
      </trkpt>
      <trkpt lat="45.24315" lon="5.63064">
        <ele>380</ele>
        <time>2011-07-06T07:50:34Z</time>
      </trkpt>
      <trkpt lat="45.24322" lon="5.63072">
        <ele>378</ele>
        <time>2011-07-06T07:50:35Z</time>
      </trkpt>
      <trkpt lat="45.2433" lon="5.63076">
        <ele>377</ele>
        <time>2011-07-06T07:50:36Z</time>
      </trkpt>
      <trkpt lat="45.24337" lon="5.6308">
        <ele>378</ele>
        <time>2011-07-06T07:50:37Z</time>
      </trkpt>
      <trkpt lat="45.24345" lon="5.63084">
        <ele>377</ele>
        <time>2011-07-06T07:50:38Z</time>
      </trkpt>
      <trkpt lat="45.24354" lon="5.63088">
        <ele>376</ele>
        <time>2011-07-06T07:50:39Z</time>
      </trkpt>
      <trkpt lat="45.24361" lon="5.63092">
        <ele>375</ele>
        <time>2011-07-06T07:50:40Z</time>
      </trkpt>
      <trkpt lat="45.24369" lon="5.63094">
        <ele>373</ele>
        <time>2011-07-06T07:50:41Z</time>
      </trkpt>
      <trkpt lat="45.24378" lon="5.63097">
        <ele>371</ele>
        <time>2011-07-06T07:50:42Z</time>
      </trkpt>
      <trkpt lat="45.24383" lon="5.631">
        <ele>371</ele>
        <time>2011-07-06T07:50:43Z</time>
      </trkpt>
      <trkpt lat="45.24389" lon="5.63102">
        <ele>371</ele>
        <time>2011-07-06T07:50:44Z</time>
      </trkpt>
      <trkpt lat="45.24394" lon="5.63101">
        <ele>369</ele>
        <time>2011-07-06T07:50:45Z</time>
      </trkpt>
      <trkpt lat="45.24399" lon="5.63104">
        <ele>365</ele>
        <time>2011-07-06T07:50:47Z</time>
      </trkpt>
      <trkpt lat="45.24404" lon="5.63108">
        <ele>363</ele>
        <time>2011-07-06T07:50:49Z</time>
      </trkpt>
      <trkpt lat="45.24409" lon="5.63114">
        <ele>358</ele>
        <time>2011-07-06T07:50:52Z</time>
      </trkpt>
      <trkpt lat="45.24415" lon="5.63113">
        <ele>353</ele>
        <time>2011-07-06T07:50:55Z</time>
      </trkpt>
      <trkpt lat="45.2442" lon="5.6311">
        <ele>348</ele>
        <time>2011-07-06T07:50:58Z</time>
      </trkpt>
      <trkpt lat="45.24425" lon="5.63112">
        <ele>346</ele>
        <time>2011-07-06T07:51:01Z</time>
      </trkpt>
      <trkpt lat="45.24431" lon="5.63112">
        <ele>344</ele>
        <time>2011-07-06T07:51:04Z</time>
      </trkpt>
      <trkpt lat="45.24436" lon="5.63117">
        <ele>342</ele>
        <time>2011-07-06T07:51:07Z</time>
      </trkpt>
      <trkpt lat="45.24441" lon="5.6312">
        <ele>340</ele>
        <time>2011-07-06T07:51:10Z</time>
      </trkpt>
      <trkpt lat="45.24446" lon="5.63122">
        <ele>334</ele>
        <time>2011-07-06T07:51:14Z</time>
      </trkpt>
      <trkpt lat="45.2445" lon="5.63125">
        <ele>332</ele>
        <time>2011-07-06T07:51:17Z</time>
      </trkpt>
      <trkpt lat="45.24453" lon="5.63131">
        <ele>329</ele>
        <time>2011-07-06T07:51:20Z</time>
      </trkpt>
      <trkpt lat="45.24456" lon="5.63137">
        <ele>326</ele>
        <time>2011-07-06T07:51:23Z</time>
      </trkpt>
      <trkpt lat="45.24461" lon="5.63142">
        <ele>323</ele>
        <time>2011-07-06T07:51:26Z</time>
      </trkpt>
      <trkpt lat="45.24468" lon="5.63142">
        <ele>320</ele>
        <time>2011-07-06T07:51:29Z</time>
      </trkpt>
      <trkpt lat="45.24474" lon="5.63143">
        <ele>319</ele>
        <time>2011-07-06T07:51:32Z</time>
      </trkpt>
      <trkpt lat="45.24479" lon="5.63137">
        <ele>316</ele>
        <time>2011-07-06T07:51:35Z</time>
      </trkpt>
      <trkpt lat="45.24483" lon="5.63128">
        <ele>308</ele>
        <time>2011-07-06T07:51:39Z</time>
      </trkpt>
      <trkpt lat="45.24483" lon="5.63121">
        <ele>299</ele>
        <time>2011-07-06T07:51:42Z</time>
      </trkpt>
      <trkpt lat="45.24481" lon="5.63112">
        <ele>296</ele>
        <time>2011-07-06T07:51:45Z</time>
      </trkpt>
      <trkpt lat="45.24486" lon="5.63112">
        <ele>287</ele>
        <time>2011-07-06T07:51:56Z</time>
      </trkpt>
      <trkpt lat="45.24491" lon="5.63112">
        <ele>284</ele>
        <time>2011-07-06T07:52:01Z</time>
      </trkpt>
      <trkpt lat="45.24491" lon="5.63112">
        <ele>284</ele>
        <time>2011-07-06T07:52:01Z</time>
      </trkpt>
      <trkpt lat="45.24491" lon="5.63112">
        <ele>283</ele>
        <time>2011-07-06T07:52:06Z</time>
      </trkpt>
      <trkpt lat="45.24487" lon="5.63108">
        <ele>283</ele>
        <time>2011-07-06T07:52:23Z</time>
      </trkpt>
      <trkpt lat="45.24488" lon="5.63116">
        <ele>280</ele>
        <time>2011-07-06T07:52:26Z</time>
      </trkpt>
      <trkpt lat="45.24477" lon="5.63122">
        <ele>278</ele>
        <time>2011-07-06T07:52:30Z</time>
      </trkpt>
      <trkpt lat="45.24469" lon="5.63121">
        <ele>277</ele>
        <time>2011-07-06T07:52:32Z</time>
      </trkpt>
      <trkpt lat="45.24461" lon="5.63121">
        <ele>276</ele>
        <time>2011-07-06T07:52:34Z</time>
      </trkpt>
      <trkpt lat="45.24452" lon="5.63119">
        <ele>276</ele>
        <time>2011-07-06T07:52:36Z</time>
      </trkpt>
      <trkpt lat="45.24446" lon="5.63119">
        <ele>276</ele>
        <time>2011-07-06T07:52:37Z</time>
      </trkpt>
      <trkpt lat="45.24438" lon="5.63118">
        <ele>275</ele>
        <time>2011-07-06T07:52:38Z</time>
      </trkpt>
      <trkpt lat="45.24431" lon="5.63118">
        <ele>276</ele>
        <time>2011-07-06T07:52:39Z</time>
      </trkpt>
      <trkpt lat="45.24424" lon="5.63118">
        <ele>275</ele>
        <time>2011-07-06T07:52:40Z</time>
      </trkpt>
      <trkpt lat="45.24417" lon="5.63121">
        <ele>275</ele>
        <time>2011-07-06T07:52:41Z</time>
      </trkpt>
      <trkpt lat="45.24405" lon="5.63127">
        <ele>275</ele>
        <time>2011-07-06T07:52:42Z</time>
      </trkpt>
      <trkpt lat="45.24397" lon="5.63135">
        <ele>275</ele>
        <time>2011-07-06T07:52:43Z</time>
      </trkpt>
      <trkpt lat="45.24389" lon="5.63141">
        <ele>275</ele>
        <time>2011-07-06T07:52:44Z</time>
      </trkpt>
      <trkpt lat="45.24378" lon="5.63144">
        <ele>274</ele>
        <time>2011-07-06T07:52:45Z</time>
      </trkpt>
      <trkpt lat="45.2437" lon="5.63153">
        <ele>275</ele>
        <time>2011-07-06T07:52:46Z</time>
      </trkpt>
      <trkpt lat="45.24364" lon="5.63159">
        <ele>274</ele>
        <time>2011-07-06T07:52:47Z</time>
      </trkpt>
      <trkpt lat="45.24362" lon="5.63166">
        <ele>274</ele>
        <time>2011-07-06T07:52:48Z</time>
      </trkpt>
      <trkpt lat="45.24364" lon="5.63175">
        <ele>273</ele>
        <time>2011-07-06T07:52:49Z</time>
      </trkpt>
      <trkpt lat="45.24363" lon="5.63183">
        <ele>272</ele>
        <time>2011-07-06T07:52:50Z</time>
      </trkpt>
      <trkpt lat="45.24364" lon="5.63191">
        <ele>272</ele>
        <time>2011-07-06T07:52:51Z</time>
      </trkpt>
      <trkpt lat="45.24366" lon="5.63198">
        <ele>271</ele>
        <time>2011-07-06T07:52:52Z</time>
      </trkpt>
      <trkpt lat="45.24368" lon="5.63208">
        <ele>270</ele>
        <time>2011-07-06T07:52:54Z</time>
      </trkpt>
      <trkpt lat="45.24371" lon="5.63214">
        <ele>262</ele>
        <time>2011-07-06T07:53:08Z</time>
      </trkpt>
      <trkpt lat="45.24371" lon="5.63214">
        <ele>262</ele>
        <time>2011-07-06T07:53:08Z</time>
      </trkpt>
      <trkpt lat="45.24371" lon="5.63214">
        <ele>261</ele>
        <time>2011-07-06T07:53:09Z</time>
      </trkpt>
      <trkpt lat="45.2437" lon="5.63223">
        <ele>258</ele>
        <time>2011-07-06T07:53:21Z</time>
      </trkpt>
      <trkpt lat="45.24372" lon="5.6323">
        <ele>257</ele>
        <time>2011-07-06T07:53:23Z</time>
      </trkpt>
      <trkpt lat="45.24376" lon="5.63234">
        <ele>257</ele>
        <time>2011-07-06T07:53:28Z</time>
      </trkpt>
      <trkpt lat="45.24376" lon="5.63234">
        <ele>257</ele>
        <time>2011-07-06T07:53:28Z</time>
      </trkpt>
    </trkseg>
  </trk>
</gpx>